Observation data for Boys Ranch on 05/24/2019      Previous  Date  Next       Current Mesonet Observations  Soil Data  Daily Summary Page  Observations in Plain Language
KBY1 240500Z 30002KT 12/11 A2997 RMK A01 T01180113  RH  097%=      5-min Rain = 0
KBY1 240501Z 30002KT 12/11 A2996 RMK A01 T01170113  RH  097%=      5-min Rain = 0
KBY1 240502Z 33002KT 12/11 A2996 RMK A01 T01180113  RH  097%=      5-min Rain = 0
KBY1 240503Z 33002KT 12/11 A2996 RMK A01 T01180113  RH  097%=      5-min Rain = 0
KBY1 240504Z 33001KT 12/11 A2996 RMK A01 T01180113  RH  097%=      5-min Rain = 0
KBY1 240505Z 35001KT 12/11 A2996 RMK A01 T01180113  RH  097%=      5-min Rain = 0
KBY1 240506Z 36003KT 12/11 A2996 RMK A01 T01180113  RH  097%=      5-min Rain = 0
KBY1 240507Z 02002KT 12/11 A2996 RMK A01 T01180113  RH  097%=      5-min Rain = 0
KBY1 240508Z 04002KT 12/11 A2996 RMK A01 T01180113  RH  097%=      5-min Rain = 0
KBY1 240509Z 06002KT 12/11 A2996 RMK A01 T01180113  RH  097%=      5-min Rain = 0
KBY1 240510Z 08003KT 12/11 A2996 RMK A01 T01180113  RH  097%=      5-min Rain = 0
KBY1 240511Z 08003KT 12/11 A2996 RMK A01 T01180113  RH  097%=      5-min Rain = 0
KBY1 240512Z 06001KT 12/11 A2996 RMK A01 T01170112  RH  097%=      5-min Rain = 0
KBY1 240513Z 07000KT 12/11 A2996 RMK A01 T01170113  RH  097%=      5-min Rain = 0
KBY1 240514Z 08002KT 12/11 A2996 RMK A01 T01170113  RH  097%=      5-min Rain = 0
KBY1 240515Z 08003KT 12/11 A2996 RMK A01 T01170113  RH  097%=      5-min Rain = 0
KBY1 240516Z 06002KT 12/11 A2996 RMK A01 T01180113  RH  097%=      5-min Rain = 0
KBY1 240517Z 02001KT 12/11 A2996 RMK A01 T01170113  RH  097%=      5-min Rain = 0
KBY1 240518Z 35002KT 12/11 A2995 RMK A01 T01180113  RH  097%=      5-min Rain = 0
KBY1 240519Z 33002KT 12/11 A2995 RMK A01 T01170114  RH  097%=      5-min Rain = 0
KBY1 240520Z 32003KT 12/11 A2995 RMK A01 T01180114  RH  097%=      5-min Rain = 0
KBY1 240521Z 32002KT 12/11 A2995 RMK A01 T01180114  RH  097%=      5-min Rain = 0
KBY1 240522Z 31003KT 12/11 A2995 RMK A01 T01180114  RH  097%=      5-min Rain = 0
KBY1 240523Z 32004KT 12/11 A2995 RMK A01 T01180114  RH  097%=      5-min Rain = 0
KBY1 240524Z 33003KT 12/11 A2995 RMK A01 T01180114  RH  097%=      5-min Rain = 0
KBY1 240525Z 00002KT 12/11 A2995 RMK A01 T01170113  RH  097%=      5-min Rain = 0
KBY1 240526Z 05002KT 12/11 A2996 RMK A01 T01170114  RH  097%=      5-min Rain = 0
KBY1 240527Z 07003KT 12/11 A2996 RMK A01 T01170113  RH  097%=      5-min Rain = 0
KBY1 240528Z 07003KT 12/11 A2996 RMK A01 T01170113  RH  098%=      5-min Rain = 0
KBY1 240529Z 07003KT 12/11 A2996 RMK A01 T01170113  RH  098%=      5-min Rain = 0
KBY1 240530Z 06002KT 12/11 A2996 RMK A01 T01170113  RH  098%=      5-min Rain = 0
KBY1 240531Z 04002KT 12/11 A2996 RMK A01 T01170114  RH  098%=      5-min Rain = 0
KBY1 240532Z 05002KT 12/11 A2996 RMK A01 T01170114  RH  098%=      5-min Rain = 0
KBY1 240533Z 07002KT 12/11 A2996 RMK A01 T01170114  RH  098%=      5-min Rain = 0
KBY1 240534Z 06002KT 12/11 A2996 RMK A01 T01170114  RH  098%=      5-min Rain = 0
KBY1 240535Z 34001KT 12/11 A2995 RMK A01 T01170114  RH  098%=      5-min Rain = 0
KBY1 240536Z 32002KT 12/12 A2995 RMK A01 T01170115  RH  099%=      5-min Rain = 0
KBY1 240537Z 32003KT 12/11 A2995 RMK A01 T01170114  RH  098%=      5-min Rain = 0
KBY1 240538Z 31004KT 12/12 A2995 RMK A01 T01170115  RH  098%=      5-min Rain = 0
KBY1 240539Z 30004KT 12/11 A2995 RMK A01 T01170114  RH  098%=      5-min Rain = 0
KBY1 240540Z 29002KT 12/11 A2996 RMK A01 T01160114  RH  098%=      5-min Rain = 0
KBY1 240541Z 29000KT 12/11 A2996 RMK A01 T01160114  RH  098%=      5-min Rain = 0
KBY1 240542Z 06000KT 12/11 A2996 RMK A01 T01160114  RH  099%=      5-min Rain = 0
KBY1 240543Z 08001KT 12/11 A2996 RMK A01 T01160114  RH  099%=      5-min Rain = 0
KBY1 240544Z 11001KT 12/11 A2997 RMK A01 T01160114  RH  099%=      5-min Rain = 0
KBY1 240545Z 13002KT 12/11 A2997 RMK A01 T01160114  RH  099%=      5-min Rain = 0
KBY1 240546Z 13002KT 12/11 A2997 RMK A01 T01150113  RH  099%=      5-min Rain = 0
KBY1 240547Z 14002KT 11/11 A2997 RMK A01 T01140112  RH  099%=      5-min Rain = 0
KBY1 240548Z 17001KT 11/11 A2997 RMK A01 T01130111  RH  098%=      5-min Rain = 0
KBY1 240549Z 19002KT 11/11 A2997 RMK A01 T01130110  RH  099%=      5-min Rain = 0
KBY1 240550Z 20002KT 11/11 A2997 RMK A01 T01120111  RH  099%=      5-min Rain = 0
KBY1 240551Z 23002KT 11/11 A2997 RMK A01 T01120110  RH  099%=      5-min Rain = 0
KBY1 240552Z 25003KT 11/11 A2997 RMK A01 T01120111  RH  099%=      5-min Rain = 0
KBY1 240553Z 25002KT 11/11 A2997 RMK A01 T01120111  RH  100%=      5-min Rain = 0
KBY1 240554Z 27002KT 11/11 A2997 RMK A01 T01120112  RH  100%=      5-min Rain = 0
KBY1 240555Z 28003KT 11/11 A2996 RMK A01 T01120112  RH  100%=      5-min Rain = 0
KBY1 240556Z 29002KT 11/11 A2996 RMK A01 T01120112  RH  100%=      5-min Rain = 0
KBY1 240557Z 30001KT 11/11 A2997 RMK A01 T01120112  RH  100%=      5-min Rain = 0
KBY1 240558Z 31001KT 11/11 A2997 RMK A01 T01120112  RH  100%=      5-min Rain = 0
KBY1 240559Z 29001KT 11/11 A2997 RMK A01 T01120112  RH  100%=      5-min Rain = 0
KBY1 240600Z 29002KT 11/11 A2997 RMK A01 T01120112  RH  100%=      5-min Rain = 0
KBY1 240601Z 29004KT 11/11 A2997 RMK A01 T01120112  RH  100%=      5-min Rain = 0
KBY1 240602Z 29004KT 11/11 A2997 RMK A01 T01120112  RH  100%=      5-min Rain = 0
KBY1 240603Z 30002KT 11/11 A2997 RMK A01 T01120112  RH  100%=      5-min Rain = 0
KBY1 240604Z 33000KT 11/11 A2997 RMK A01 T01120112  RH  100%=      5-min Rain = 0
KBY1 240605Z 00000KT 11/11 A2997 RMK A01 T01120112  RH  100%=      5-min Rain = 0
KBY1 240606Z 11000KT 11/11 A2997 RMK A01 T01120112  RH  100%=      5-min Rain = 0
KBY1 240607Z 12000KT 11/11 A2997 RMK A01 T01120112  RH  100%=      5-min Rain = 0
KBY1 240608Z 00000KT 11/11 A2997 RMK A01 T01120112  RH  100%=      5-min Rain = 0
KBY1 240609Z 29002KT 11/11 A2996 RMK A01 T01120112  RH  100%=      5-min Rain = 0
KBY1 240610Z 31003KT 11/11 A2996 RMK A01 T01110111  RH  100%=      5-min Rain = 0
KBY1 240611Z 32004KT 11/11 A2996 RMK A01 T01110111  RH  100%=      5-min Rain = 0
KBY1 240612Z 30005KT 11/11 A2996 RMK A01 T01120112  RH  100%=      5-min Rain = 0
KBY1 240613Z 30007KT 11/11 A2996 RMK A01 T01120112  RH  100%=      5-min Rain = 0
KBY1 240614Z 31007KT 11/11 A2996 RMK A01 T01120112  RH  100%=      5-min Rain = 0
KBY1 240615Z 31007KT 11/11 A2996 RMK A01 T01120112  RH  100%=      5-min Rain = 0
KBY1 240616Z 31007KT 11/11 A2997 RMK A01 T01120112  RH  100%=      5-min Rain = 0
KBY1 240617Z 31007KT 11/11 A2997 RMK A01 T01120112  RH  100%=      5-min Rain = 0
KBY1 240618Z 32005KT 11/11 A2997 RMK A01 T01120112  RH  100%=      5-min Rain = 0
KBY1 240619Z 34004KT 11/11 A2997 RMK A01 T01120112  RH  100%=      5-min Rain = 0
KBY1 240620Z 34004KT 11/11 A2997 RMK A01 T01120112  RH  100%=      5-min Rain = 0
KBY1 240621Z 33006KT 11/11 A2997 RMK A01 T01120112  RH  100%=      5-min Rain = 0
KBY1 240622Z 32005KT 11/11 A2997 RMK A01 T01120112  RH  100%=      5-min Rain = 0
KBY1 240623Z 32005KT 11/11 A2997 RMK A01 T01130113  RH  100%=      5-min Rain = 0
KBY1 240624Z 33004KT 11/11 A2997 RMK A01 T01130113  RH  100%=      5-min Rain = 0
KBY1 240625Z 33005KT 11/11 A2997 RMK A01 T01140114  RH  100%=      5-min Rain = 0
KBY1 240626Z 33005KT 11/11 A2997 RMK A01 T01140114  RH  100%=      5-min Rain = 0
KBY1 240627Z 32006KT 12/12 A2997 RMK A01 T01150115  RH  100%=      5-min Rain = 0
KBY1 240628Z 32006KT 12/12 A2997 RMK A01 T01150115  RH  100%=      5-min Rain = 0
KBY1 240629Z 31005KT 12/12 A2997 RMK A01 T01150115  RH  100%=      5-min Rain = 0
KBY1 240630Z 31003KT 12/12 A2997 RMK A01 T01150115  RH  100%=      5-min Rain = 0
KBY1 240631Z 32003KT 12/12 A2997 RMK A01 T01150115  RH  100%=      5-min Rain = 0
KBY1 240632Z 34003KT 12/12 A2997 RMK A01 T01150115  RH  100%=      5-min Rain = 0
KBY1 240633Z 34005KT 12/12 A2997 RMK A01 T01150115  RH  100%=      5-min Rain = 0
KBY1 240634Z 33005KT 12/12 A2997 RMK A01 T01150115  RH  100%=      5-min Rain = 0
KBY1 240635Z 33006KT 12/12 A2997 RMK A01 T01160116  RH  100%=      5-min Rain = 0
KBY1 240636Z 34006KT 12/12 A2997 RMK A01 T01160116  RH  100%=      5-min Rain = 0
KBY1 240637Z 33005KT 12/12 A2997 RMK A01 T01160116  RH  100%=      5-min Rain = 0
KBY1 240638Z 33005KT 12/12 A2998 RMK A01 T01160116  RH  100%=      5-min Rain = 0
KBY1 240639Z 33004KT 12/12 A2997 RMK A01 T01160116  RH  100%=      5-min Rain = 0
KBY1 240640Z 34003KT 12/12 A2997 RMK A01 T01160116  RH  100%=      5-min Rain = 0
KBY1 240641Z 34004KT 12/12 A2997 RMK A01 T01170117  RH  100%=      5-min Rain = 0
KBY1 240642Z 34004KT 12/12 A2997 RMK A01 T01170117  RH  100%=      5-min Rain = 0
KBY1 240643Z 33004KT 12/12 A2997 RMK A01 T01170117  RH  100%=      5-min Rain = 0
KBY1 240644Z 33004KT 12/12 A2997 RMK A01 T01170117  RH  100%=      5-min Rain = 0
KBY1 240645Z 32004KT 12/12 A2997 RMK A01 T01170117  RH  100%=      5-min Rain = 0
KBY1 240646Z 32005KT 12/12 A2997 RMK A01 T01170117  RH  100%=      5-min Rain = 0
KBY1 240647Z 34002KT 12/12 A2997 RMK A01 T01170117  RH  100%=      5-min Rain = 0
KBY1 240648Z 35001KT 12/12 A2997 RMK A01 T01170117  RH  100%=      5-min Rain = 0
KBY1 240649Z 34002KT 12/12 A2997 RMK A01 T01170117  RH  100%=      5-min Rain = 0
KBY1 240650Z 34001KT 12/12 A2998 RMK A01 T01170117  RH  100%=      5-min Rain = 0
KBY1 240651Z 34003KT 12/12 A2998 RMK A01 T01170117  RH  100%=      5-min Rain = 0
KBY1 240652Z 32003KT 12/12 A2998 RMK A01 T01170117  RH  100%=      5-min Rain = 0
KBY1 240653Z 31004KT 12/12 A2998 RMK A01 T01180118  RH  100%=      5-min Rain = 0
KBY1 240654Z 32007KT 12/12 A2998 RMK A01 T01170117  RH  100%=      5-min Rain = 0
KBY1 240655Z 32006KT 12/12 A2998 RMK A01 T01170117  RH  100%=      5-min Rain = 0
KBY1 240656Z 32008KT 12/12 A2998 RMK A01 T01170117  RH  100%=      5-min Rain = 0
KBY1 240657Z 32009KT 12/12 A2997 RMK A01 T01150115  RH  100%=      5-min Rain = 0
KBY1 240658Z 32007KT 11/12 A2997 RMK A01 T01140115  RH  100%=      5-min Rain = 0
KBY1 240659Z 32008KT 11/11 A2998 RMK A01 T01140114  RH  100%=      5-min Rain = 0
KBY1 240700Z 32006KT 11/11 A2998 RMK A01 T01140114  RH  100%=      5-min Rain = 0
KBY1 240701Z 32006KT 11/11 A2998 RMK A01 T01140114  RH  100%=      5-min Rain = 0
KBY1 240702Z 32006KT 11/11 A2997 RMK A01 T01140114  RH  100%=      5-min Rain = 0
KBY1 240703Z 32005KT 11/11 A2997 RMK A01 T01140114  RH  100%=      5-min Rain = 0
KBY1 240704Z 31004KT 11/11 A2997 RMK A01 T01140113  RH  100%=      5-min Rain = 0
KBY1 240705Z 32005KT 11/11 A2997 RMK A01 T01140113  RH  100%=      5-min Rain = 0
KBY1 240706Z 33004KT 11/11 A2997 RMK A01 T01130113  RH  099%=      5-min Rain = 0
KBY1 240707Z 32004KT 11/11 A2997 RMK A01 T01140112  RH  099%=      5-min Rain = 0
KBY1 240708Z 33004KT 11/11 A2997 RMK A01 T01140112  RH  099%=      5-min Rain = 0
KBY1 240709Z 32005KT 11/11 A2997 RMK A01 T01140112  RH  099%=      5-min Rain = 0
KBY1 240710Z 33004KT 11/11 A2998 RMK A01 T01140112  RH  099%=      5-min Rain = 0
KBY1 240711Z 34006KT 11/11 A2998 RMK A01 T01140112  RH  099%=      5-min Rain = 0
KBY1 240712Z 34006KT 11/11 A2998 RMK A01 T01140111  RH  098%=      5-min Rain = 0
KBY1 240713Z 35006KT 11/11 A2998 RMK A01 T01140111  RH  098%=      5-min Rain = 0
KBY1 240714Z 34006KT 11/11 A2997 RMK A01 T01140111  RH  098%=      5-min Rain = 0
KBY1 240715Z 34006KT 11/11 A2997 RMK A01 T01140110  RH  098%=      5-min Rain = 0
KBY1 240716Z 34005KT 11/11 A2997 RMK A01 T01140110  RH  097%=      5-min Rain = 0
KBY1 240717Z 33005KT 11/11 A2997 RMK A01 T01140110  RH  097%=      5-min Rain = 0
KBY1 240718Z 34005KT 11/11 A2997 RMK A01 T01140109  RH  097%=      5-min Rain = 0
KBY1 240719Z 33004KT 11/11 A2997 RMK A01 T01140109  RH  097%=      5-min Rain = 0
KBY1 240720Z 32003KT 11/11 A2997 RMK A01 T01140110  RH  097%=      5-min Rain = 0
KBY1 240721Z 32004KT 11/11 A2997 RMK A01 T01140110  RH  097%=      5-min Rain = 0
KBY1 240722Z 33003KT 11/11 A2997 RMK A01 T01140110  RH  097%=      5-min Rain = 0
KBY1 240723Z 35003KT 11/11 A2997 RMK A01 T01140110  RH  097%=      5-min Rain = 0
KBY1 240724Z 34004KT 11/11 A2997 RMK A01 T01140110  RH  097%=      5-min Rain = 0
KBY1 240725Z 33005KT 11/11 A2997 RMK A01 T01140110  RH  097%=      5-min Rain = 0
KBY1 240726Z 34005KT 11/11 A2997 RMK A01 T01140110  RH  097%=      5-min Rain = 0
KBY1 240727Z 33006KT 11/11 A2997 RMK A01 T01140110  RH  097%=      5-min Rain = 0
KBY1 240728Z 34005KT 11/11 A2997 RMK A01 T01140110  RH  097%=      5-min Rain = 0
KBY1 240729Z 34005KT 11/11 A2997 RMK A01 T01140110  RH  097%=      5-min Rain = 0
KBY1 240730Z 34004KT 11/11 A2997 RMK A01 T01140110  RH  097%=      5-min Rain = 0
KBY1 240731Z 34004KT 11/11 A2996 RMK A01 T01140110  RH  098%=      5-min Rain = 0
KBY1 240732Z 33005KT 11/11 A2996 RMK A01 T01140110  RH  097%=      5-min Rain = 0
KBY1 240733Z 33005KT 11/11 A2996 RMK A01 T01140110  RH  097%=      5-min Rain = 0
KBY1 240734Z 33004KT 11/11 A2996 RMK A01 T01140110  RH  097%=      5-min Rain = 0
KBY1 240735Z 34005KT 11/11 A2996 RMK A01 T01140110  RH  098%=      5-min Rain = 0
KBY1 240736Z 34004KT 11/11 A2996 RMK A01 T01140110  RH  098%=      5-min Rain = 0
KBY1 240737Z 34005KT 11/11 A2996 RMK A01 T01140111  RH  098%=      5-min Rain = 0
KBY1 240738Z 32005KT 11/11 A2996 RMK A01 T01140111  RH  098%=      5-min Rain = 0
KBY1 240739Z 33006KT 11/11 A2996 RMK A01 T01140111  RH  098%=      5-min Rain = 0
KBY1 240740Z 32005KT 11/11 A2996 RMK A01 T01140111  RH  098%=      5-min Rain = 0
KBY1 240741Z 32004KT 11/11 A2995 RMK A01 T01140112  RH  098%=      5-min Rain = 0
KBY1 240742Z 32003KT 11/11 A2995 RMK A01 T01140112  RH  098%=      5-min Rain = 0
KBY1 240743Z 32003KT 12/11 A2995 RMK A01 T01150113  RH  099%=      5-min Rain = 0
KBY1 240744Z 32003KT 12/11 A2995 RMK A01 T01150113  RH  099%=      5-min Rain = 0
KBY1 240745Z 32004KT 12/11 A2995 RMK A01 T01150113  RH  099%=      5-min Rain = 0
KBY1 240746Z 31004KT 12/11 A2995 RMK A01 T01150113  RH  099%=      5-min Rain = 0
KBY1 240747Z 30004KT 12/11 A2995 RMK A01 T01150113  RH  099%=      5-min Rain = 0
KBY1 240748Z 31004KT 12/11 A2995 RMK A01 T01150113  RH  099%=      5-min Rain = 0
KBY1 240749Z 31004KT 12/11 A2996 RMK A01 T01150113  RH  099%=      5-min Rain = 0
KBY1 240750Z 31003KT 12/11 A2996 RMK A01 T01150113  RH  099%=      5-min Rain = 0
KBY1 240751Z 32004KT 12/11 A2996 RMK A01 T01150113  RH  099%=      5-min Rain = 0
KBY1 240752Z 32004KT 12/11 A2996 RMK A01 T01150114  RH  099%=      5-min Rain = 0
KBY1 240753Z 32006KT 12/11 A2996 RMK A01 T01150114  RH  099%=      5-min Rain = 0
KBY1 240754Z 32004KT 12/11 A2996 RMK A01 T01150113  RH  099%=      5-min Rain = 0
KBY1 240755Z 32005KT 12/11 A2996 RMK A01 T01150113  RH  099%=      5-min Rain = 0
KBY1 240756Z 32004KT 12/11 A2996 RMK A01 T01150114  RH  099%=      5-min Rain = 0
KBY1 240757Z 33004KT 12/11 A2996 RMK A01 T01150113  RH  099%=      5-min Rain = 0
KBY1 240758Z 31003KT 12/11 A2996 RMK A01 T01150113  RH  099%=      5-min Rain = 0
KBY1 240759Z 29002KT 12/11 A2996 RMK A01 T01150113  RH  099%=      5-min Rain = 0
KBY1 240800Z 30002KT 12/11 A2996 RMK A01 T01150113  RH  099%=      5-min Rain = 0
KBY1 240801Z 31005KT 12/11 A2996 RMK A01 T01160114  RH  099%=      5-min Rain = 0
KBY1 240802Z 32005KT 12/11 A2996 RMK A01 T01160113  RH  098%=      5-min Rain = 0
KBY1 240803Z 32005KT 12/11 A2996 RMK A01 T01150113  RH  098%=      5-min Rain = 0
KBY1 240804Z 31004KT 12/11 A2996 RMK A01 T01160113  RH  098%=      5-min Rain = 0
KBY1 240805Z 33003KT 12/11 A2996 RMK A01 T01160113  RH  098%=      5-min Rain = 0
KBY1 240811Z 30001KT 12/11 A2997 RMK A01 T01150112  RH  098%=      5-min Rain = 0
KBY1 240812Z 31001KT 12/11 A2997 RMK A01 T01160113  RH  098%=      5-min Rain = 0
KBY1 240813Z 32002KT 12/11 A2997 RMK A01 T01160113  RH  098%=      5-min Rain = 0
KBY1 240814Z 31002KT 12/11 A2997 RMK A01 T01160113  RH  098%=      5-min Rain = 0
KBY1 240815Z 30002KT 12/11 A2998 RMK A01 T01160113  RH  098%=      5-min Rain = 0
KBY1 240816Z 31001KT 12/11 A2998 RMK A01 T01160113  RH  098%=      5-min Rain = 0
KBY1 240817Z 31001KT 12/11 A2998 RMK A01 T01160113  RH  098%=      5-min Rain = 0
KBY1 240818Z 29001KT 12/11 A2998 RMK A01 T01160113  RH  098%=      5-min Rain = 0
KBY1 240819Z 29000KT 12/11 A2998 RMK A01 T01160113  RH  098%=      5-min Rain = 0
KBY1 240820Z 27001KT 12/11 A2998 RMK A01 T01170114  RH  098%=      5-min Rain = 0
KBY1 240821Z 32001KT 12/11 A2998 RMK A01 T01170114  RH  098%=      5-min Rain = 0
KBY1 240822Z 32002KT 12/11 A2998 RMK A01 T01160113  RH  098%=      5-min Rain = 0
KBY1 240823Z 32001KT 12/11 A2998 RMK A01 T01160113  RH  098%=      5-min Rain = 0
KBY1 240824Z 35001KT 12/11 A2998 RMK A01 T01160113  RH  098%=      5-min Rain = 0
KBY1 240825Z 00002KT 12/11 A2998 RMK A01 T01170113  RH  098%=      5-min Rain = 0
KBY1 240826Z 36003KT 12/11 A2998 RMK A01 T01170114  RH  098%=      5-min Rain = 0
KBY1 240827Z 00003KT 12/11 A2998 RMK A01 T01170114  RH  098%=      5-min Rain = 0
KBY1 240828Z 01003KT 12/11 A2998 RMK A01 T01170113  RH  098%=      5-min Rain = 0
KBY1 240829Z 02002KT 12/11 A2998 RMK A01 T01170113  RH  098%=      5-min Rain = 0
KBY1 240830Z 00002KT 12/11 A2998 RMK A01 T01170113  RH  098%=      5-min Rain = 0
KBY1 240831Z 00003KT 12/11 A2998 RMK A01 T01170114  RH  098%=      5-min Rain = 0
KBY1 240832Z 00003KT 12/11 A2998 RMK A01 T01170113  RH  098%=      5-min Rain = 0
KBY1 240833Z 02003KT 12/11 A2998 RMK A01 T01160113  RH  098%=      5-min Rain = 0
KBY1 240834Z 01002KT 12/11 A2998 RMK A01 T01160113  RH  098%=      5-min Rain = 0
KBY1 240835Z 02001KT 12/11 A2998 RMK A01 T01160113  RH  098%=      5-min Rain = 0
KBY1 240836Z 00001KT 12/11 A2999 RMK A01 T01160113  RH  098%=      5-min Rain = 0
KBY1 240837Z 03002KT 12/11 A2999 RMK A01 T01160113  RH  098%=      5-min Rain = 0
KBY1 240838Z 02002KT 12/11 A2999 RMK A01 T01160113  RH  098%=      5-min Rain = 0
KBY1 240839Z 01003KT 12/11 A2999 RMK A01 T01160114  RH  098%=      5-min Rain = 0
KBY1 240840Z 35002KT 12/11 A2999 RMK A01 T01160114  RH  098%=      5-min Rain = 0
KBY1 240841Z 36002KT 12/11 A2999 RMK A01 T01160114  RH  099%=      5-min Rain = 0
KBY1 240842Z 00002KT 12/11 A2999 RMK A01 T01160114  RH  099%=      5-min Rain = 0
KBY1 240843Z 01002KT 12/11 A2999 RMK A01 T01160114  RH  099%=      5-min Rain = 0
KBY1 240844Z 36002KT 12/11 A2999 RMK A01 T01160114  RH  099%=      5-min Rain = 0
KBY1 240845Z 33001KT 12/11 A2999 RMK A01 T01160114  RH  099%=      5-min Rain = 0
KBY1 240846Z 33002KT 12/11 A2999 RMK A01 T01160114  RH  099%=      5-min Rain = 0
KBY1 240847Z 33001KT 12/11 A2999 RMK A01 T01160114  RH  099%=      5-min Rain = 0
KBY1 240848Z 35000KT 12/12 A2999 RMK A01 T01160115  RH  099%=      5-min Rain = 0
KBY1 240849Z 00000KT 12/11 A2999 RMK A01 T01160114  RH  099%=      5-min Rain = 0
KBY1 240850Z 01000KT 12/12 A2999 RMK A01 T01160115  RH  099%=      5-min Rain = 0
KBY1 240851Z 01001KT 12/12 A2999 RMK A01 T01170115  RH  099%=      5-min Rain = 0
KBY1 240852Z 34001KT 12/12 A2999 RMK A01 T01160115  RH  099%=      5-min Rain = 0
KBY1 240853Z 35001KT 12/11 A2999 RMK A01 T01160114  RH  099%=      5-min Rain = 0
KBY1 240854Z 35001KT 12/12 A2999 RMK A01 T01170115  RH  099%=      5-min Rain = 0
KBY1 240855Z 01002KT 12/11 A2999 RMK A01 T01160114  RH  099%=      5-min Rain = 0
KBY1 240856Z 02002KT 12/12 A2999 RMK A01 T01160115  RH  099%=      5-min Rain = 0
KBY1 240857Z 36001KT 12/12 A2999 RMK A01 T01170115  RH  099%=      5-min Rain = 0
KBY1 240858Z 35003KT 12/12 A2999 RMK A01 T01170116  RH  099%=      5-min Rain = 0
KBY1 240859Z 34002KT 12/12 A2999 RMK A01 T01180116  RH  099%=      5-min Rain = 0
KBY1 240900Z 34001KT 12/12 A2999 RMK A01 T01180115  RH  099%=      5-min Rain = 0
KBY1 240901Z 35001KT 12/12 A2999 RMK A01 T01180116  RH  099%=      5-min Rain = 0
KBY1 240902Z 01001KT 12/12 A30 RMK A01 T01180116  RH  099%=      5-min Rain = 0
KBY1 240903Z 06001KT 12/12 A30 RMK A01 T01180116  RH  099%=      5-min Rain = 0
KBY1 240904Z 07002KT 12/12 A2999 RMK A01 T01180117  RH  099%=      5-min Rain = 0
KBY1 240905Z 07003KT 12/12 A2999 RMK A01 T01180116  RH  099%=      5-min Rain = 0
KBY1 240906Z 06002KT 12/12 A2999 RMK A01 T01180116  RH  099%=      5-min Rain = 0
KBY1 240907Z 07003KT 12/12 A2999 RMK A01 T01180117  RH  099%=      5-min Rain = 0
KBY1 240908Z 07003KT 12/12 A2999 RMK A01 T01180117  RH  099%=      5-min Rain = 0
KBY1 240909Z 07002KT 12/12 A30 RMK A01 T01180117  RH  099%=      5-min Rain = 0
KBY1 240910Z 07002KT 12/12 A30 RMK A01 T01180117  RH  099%=      5-min Rain = 0
KBY1 240911Z 07001KT 12/12 A30 RMK A01 T01180117  RH  099%=      5-min Rain = 0
KBY1 240912Z 07003KT 12/12 A2999 RMK A01 T01180117  RH  099%=      5-min Rain = 0
KBY1 240913Z 05004KT 12/12 A2999 RMK A01 T01180117  RH  099%=      5-min Rain = 0
KBY1 240914Z 04004KT 12/12 A2999 RMK A01 T01180117  RH  100%=      5-min Rain = 0
KBY1 240915Z 05004KT 12/12 A2999 RMK A01 T01170116  RH  100%=      5-min Rain = 0
KBY1 240916Z 05003KT 12/12 A2999 RMK A01 T01170116  RH  100%=      5-min Rain = 0
KBY1 240917Z 04003KT 12/12 A2999 RMK A01 T01170117  RH  100%=      5-min Rain = 0
KBY1 240918Z 05003KT 12/12 A2999 RMK A01 T01170117  RH  100%=      5-min Rain = 0
KBY1 240919Z 08004KT 12/12 A2999 RMK A01 T01160116  RH  100%=      5-min Rain = 0
KBY1 240920Z 10005KT 12/12 A2999 RMK A01 T01160116  RH  100%=      5-min Rain = 0
KBY1 240921Z 11005KT 12/12 A30 RMK A01 T01160116  RH  100%=      5-min Rain = 0
KBY1 240922Z 11005KT 12/12 A30 RMK A01 T01160116  RH  100%=      5-min Rain = 0
KBY1 240923Z 11005KT 12/12 A30 RMK A01 T01160116  RH  100%=      5-min Rain = 0
KBY1 240924Z 10004KT 12/12 A30 RMK A01 T01160116  RH  100%=      5-min Rain = 0
KBY1 240925Z 09003KT 12/12 A30 RMK A01 T01160116  RH  100%=      5-min Rain = 0
KBY1 240926Z 09003KT 12/12 A30 RMK A01 T01160116  RH  100%=      5-min Rain = 0
KBY1 240927Z 08004KT 12/12 A2999 RMK A01 T01160116  RH  100%=      5-min Rain = 0
KBY1 240928Z 08004KT 12/12 A2999 RMK A01 T01150115  RH  100%=      5-min Rain = 0
KBY1 240929Z 09003KT 12/12 A2999 RMK A01 T01150116  RH  100%=      5-min Rain = 0
KBY1 240930Z 09003KT 12/12 A2999 RMK A01 T01160116  RH  100%=      5-min Rain = 0
KBY1 240931Z 07002KT 12/12 A2999 RMK A01 T01160116  RH  100%=      5-min Rain = 0
KBY1 240932Z 07002KT 12/12 A2999 RMK A01 T01160116  RH  100%=      5-min Rain = 0
KBY1 240933Z 08003KT 12/12 A2999 RMK A01 T01160116  RH  100%=      5-min Rain = 0
KBY1 240934Z 07003KT 12/12 A2999 RMK A01 T01150115  RH  100%=      5-min Rain = 0
KBY1 240935Z 07002KT 12/12 A2999 RMK A01 T01150115  RH  100%=      5-min Rain = 0
KBY1 240936Z 07001KT 12/12 A2999 RMK A01 T01160116  RH  100%=      5-min Rain = 0
KBY1 240937Z 07002KT 12/12 A2999 RMK A01 T01150116  RH  100%=      5-min Rain = 0
KBY1 240938Z 05002KT 12/12 A2999 RMK A01 T01150115  RH  100%=      5-min Rain = 0
KBY1 240939Z 04001KT 12/12 A2999 RMK A01 T01150115  RH  100%=      5-min Rain = 0
KBY1 240940Z 05001KT 12/12 A2999 RMK A01 T01160116  RH  100%=      5-min Rain = 0
KBY1 240941Z 07001KT 12/12 A2999 RMK A01 T01160116  RH  100%=      5-min Rain = 0
KBY1 240942Z 06001KT 12/12 A2999 RMK A01 T01160116  RH  100%=      5-min Rain = 0
KBY1 240943Z 05001KT 12/12 A2999 RMK A01 T01160116  RH  100%=      5-min Rain = 0
KBY1 240944Z 03001KT 12/12 A2998 RMK A01 T01160116  RH  100%=      5-min Rain = 0
KBY1 240945Z 05002KT 12/12 A2998 RMK A01 T01160116  RH  100%=      5-min Rain = 0
KBY1 240946Z 07003KT 12/12 A2999 RMK A01 T01160116  RH  100%=      5-min Rain = 0
KBY1 240947Z 08002KT 12/12 A2999 RMK A01 T01160116  RH  100%=      5-min Rain = 0
KBY1 240948Z 07005KT 12/12 A2999 RMK A01 T01160116  RH  100%=      5-min Rain = 0
KBY1 240949Z 06004KT 12/12 A2999 RMK A01 T01160116  RH  100%=      5-min Rain = 0
KBY1 240950Z 07002KT 12/12 A2998 RMK A01 T01160116  RH  100%=      5-min Rain = 0
KBY1 240951Z 07003KT 12/12 A2998 RMK A01 T01160116  RH  100%=      5-min Rain = 0
KBY1 240952Z 06003KT 12/12 A2998 RMK A01 T01170117  RH  100%=      5-min Rain = 0
KBY1 240953Z 06003KT 12/12 A2998 RMK A01 T01170117  RH  100%=      5-min Rain = 0
KBY1 240954Z 06004KT 12/12 A2998 RMK A01 T01170117  RH  100%=      5-min Rain = 0
KBY1 240955Z 06004KT 12/12 A2998 RMK A01 T01170117  RH  100%=      5-min Rain = 0
KBY1 240956Z 06004KT 12/12 A2998 RMK A01 T01170117  RH  100%=      5-min Rain = 0
KBY1 240957Z 05003KT 12/12 A2999 RMK A01 T01170117  RH  100%=      5-min Rain = 0
KBY1 240958Z 05003KT 12/12 A2999 RMK A01 T01160116  RH  100%=      5-min Rain = 0
KBY1 240959Z 05004KT 12/12 A2999 RMK A01 T01160116  RH  100%=      5-min Rain = 0
KBY1 241000Z 06004KT 12/12 A2999 RMK A01 T01160116  RH  100%=      5-min Rain = 0
KBY1 241001Z 06003KT 12/12 A2999 RMK A01 T01160116  RH  100%=      5-min Rain = 0
KBY1 241002Z 07003KT 12/12 A2999 RMK A01 T01160116  RH  100%=      5-min Rain = 0
KBY1 241003Z 08002KT 12/12 A2999 RMK A01 T01160116  RH  100%=      5-min Rain = 0
KBY1 241004Z 08002KT 12/12 A2999 RMK A01 T01160116  RH  100%=      5-min Rain = 0
KBY1 241005Z 08002KT 12/12 A2999 RMK A01 T01160116  RH  100%=      5-min Rain = 0
KBY1 241006Z 04002KT 12/12 A2999 RMK A01 T01160116  RH  100%=      5-min Rain = 0
KBY1 241007Z 04003KT 12/12 A2999 RMK A01 T01160116  RH  100%=      5-min Rain = 0
KBY1 241008Z 03002KT 12/12 A2999 RMK A01 T01160116  RH  100%=      5-min Rain = 0
KBY1 241009Z 02003KT 12/12 A2999 RMK A01 T01160116  RH  100%=      5-min Rain = 0
KBY1 241010Z 02003KT 12/12 A2999 RMK A01 T01160116  RH  100%=      5-min Rain = 0
KBY1 241011Z 03003KT 12/12 A2999 RMK A01 T01160116  RH  100%=      5-min Rain = 0
KBY1 241012Z 03003KT 12/12 A2999 RMK A01 T01160116  RH  100%=      5-min Rain = 0
KBY1 241013Z 03003KT 12/12 A2999 RMK A01 T01160116  RH  100%=      5-min Rain = 0
KBY1 241014Z 03003KT 12/12 A2999 RMK A01 T01160116  RH  100%=      5-min Rain = 0
KBY1 241015Z 04002KT 12/12 A2999 RMK A01 T01160116  RH  100%=      5-min Rain = 0
KBY1 241016Z 03002KT 12/12 A2999 RMK A01 T01160116  RH  100%=      5-min Rain = 0
KBY1 241017Z 04002KT 12/12 A2999 RMK A01 T01160116  RH  100%=      5-min Rain = 0
KBY1 241018Z 05002KT 12/12 A2999 RMK A01 T01160116  RH  100%=      5-min Rain = 0
KBY1 241019Z 05002KT 12/12 A2999 RMK A01 T01160116  RH  100%=      5-min Rain = 0
KBY1 241020Z 05003KT 12/12 A2999 RMK A01 T01160116  RH  100%=      5-min Rain = 0
KBY1 241021Z 05004KT 12/12 A2999 RMK A01 T01160116  RH  100%=      5-min Rain = 0
KBY1 241022Z 05004KT 12/12 A2999 RMK A01 T01160116  RH  100%=      5-min Rain = 0
KBY1 241023Z 04003KT 12/12 A2999 RMK A01 T01160116  RH  100%=      5-min Rain = 0
KBY1 241024Z 04003KT 12/12 A2999 RMK A01 T01160116  RH  100%=      5-min Rain = 0
KBY1 241025Z 05003KT 12/12 A2999 RMK A01 T01160116  RH  100%=      5-min Rain = 0
KBY1 241026Z 03002KT 12/12 A2999 RMK A01 T01160116  RH  100%=      5-min Rain = 0
KBY1 241027Z 03002KT 12/12 A2999 RMK A01 T01160117  RH  100%=      5-min Rain = 0
KBY1 241028Z 03002KT 12/12 A2999 RMK A01 T01160116  RH  100%=      5-min Rain = 0
KBY1 241029Z 03004KT 12/12 A2999 RMK A01 T01160116  RH  100%=      5-min Rain = 0
KBY1 241030Z 04004KT 12/12 A2999 RMK A01 T01160116  RH  100%=      5-min Rain = 0
KBY1 241031Z 04003KT 12/12 A2999 RMK A01 T01160116  RH  100%=      5-min Rain = 0
KBY1 241032Z 06003KT 12/12 A30 RMK A01 T01160116  RH  100%=      5-min Rain = 0
KBY1 241033Z 06003KT 12/12 A30 RMK A01 T01160116  RH  100%=      5-min Rain = 0
KBY1 241034Z 07003KT 12/12 A30 RMK A01 T01160116  RH  100%=      5-min Rain = 0
KBY1 241035Z 07003KT 12/12 A30 RMK A01 T01160116  RH  100%=      5-min Rain = 0
KBY1 241036Z 08003KT 12/12 A30 RMK A01 T01160116  RH  100%=      5-min Rain = 0
KBY1 241037Z 07003KT 12/12 A30 RMK A01 T01170117  RH  100%=      5-min Rain = 0
KBY1 241038Z 08003KT 12/12 A30 RMK A01 T01170117  RH  100%=      5-min Rain = 0
KBY1 241039Z 09004KT 12/12 A30 RMK A01 T01170117  RH  100%=      5-min Rain = 0
KBY1 241040Z 08004KT 12/12 A30 RMK A01 T01170117  RH  100%=      5-min Rain = 0
KBY1 241041Z 10004KT 12/12 A30 RMK A01 T01160116  RH  100%=      5-min Rain = 0
KBY1 241042Z 11004KT 12/12 A30 RMK A01 T01160116  RH  100%=      5-min Rain = 0
KBY1 241043Z 11004KT 12/12 A30 RMK A01 T01160116  RH  100%=      5-min Rain = 0
KBY1 241044Z 11004KT 12/12 A30 RMK A01 T01160116  RH  100%=      5-min Rain = 0
KBY1 241045Z 11004KT 12/12 A3001 RMK A01 T01160116  RH  100%=      5-min Rain = 0
KBY1 241046Z 11004KT 12/12 A3001 RMK A01 T01160116  RH  100%=      5-min Rain = 0
KBY1 241047Z 10004KT 12/12 A3001 RMK A01 T01150115  RH  100%=      5-min Rain = 0
KBY1 241048Z 10004KT 12/12 A3001 RMK A01 T01160116  RH  100%=      5-min Rain = 0
KBY1 241049Z 09004KT 12/12 A3001 RMK A01 T01160116  RH  100%=      5-min Rain = 0
KBY1 241050Z 09004KT 12/12 A3001 RMK A01 T01160116  RH  100%=      5-min Rain = 0
KBY1 241051Z 10003KT 12/12 A3001 RMK A01 T01160116  RH  100%=      5-min Rain = 0
KBY1 241052Z 11002KT 12/12 A3001 RMK A01 T01160116  RH  100%=      5-min Rain = 0
KBY1 241053Z 11002KT 12/12 A3001 RMK A01 T01160116  RH  100%=      5-min Rain = 0
KBY1 241054Z 10002KT 12/12 A3001 RMK A01 T01160116  RH  100%=      5-min Rain = 0
KBY1 241055Z 10003KT 12/12 A3001 RMK A01 T01160116  RH  100%=      5-min Rain = 0
KBY1 241056Z 12004KT 12/12 A3002 RMK A01 T01160116  RH  100%=      5-min Rain = 0
KBY1 241057Z 11005KT 12/12 A3002 RMK A01 T01160116  RH  100%=      5-min Rain = 0
KBY1 241058Z 10005KT 12/12 A3002 RMK A01 T01160116  RH  100%=      5-min Rain = 0
KBY1 241059Z 10006KT 12/12 A3002 RMK A01 T01160116  RH  100%=      5-min Rain = 0
KBY1 241100Z 10005KT 12/12 A3002 RMK A01 T01160116  RH  100%=      5-min Rain = 0
KBY1 241101Z 10006KT 12/12 A3002 RMK A01 T01160116  RH  100%=      5-min Rain = 0
KBY1 241102Z 09005KT 12/12 A3002 RMK A01 T01160116  RH  100%=      5-min Rain = 0
KBY1 241103Z 09004KT 12/12 A3002 RMK A01 T01160116  RH  100%=      5-min Rain = 0
KBY1 241104Z 10005KT 12/12 A3002 RMK A01 T01160116  RH  100%=      5-min Rain = 0
KBY1 241105Z 09005KT 12/12 A3002 RMK A01 T01160116  RH  100%=      5-min Rain = 0
KBY1 241106Z 09005KT 12/12 A3002 RMK A01 T01160116  RH  100%=      5-min Rain = 0
KBY1 241107Z 09004KT 12/12 A3002 RMK A01 T01160116  RH  100%=      5-min Rain = 0
KBY1 241108Z 09005KT 12/12 A3002 RMK A01 T01160116  RH  100%=      5-min Rain = 0
KBY1 241109Z 08005KT 12/12 A3002 RMK A01 T01150115  RH  100%=      5-min Rain = 0
KBY1 241110Z 08004KT 12/12 A3002 RMK A01 T01150115  RH  100%=      5-min Rain = 0
KBY1 241111Z 08004KT 12/12 A3002 RMK A01 T01150116  RH  100%=      5-min Rain = 0
KBY1 241112Z 07004KT 12/12 A3002 RMK A01 T01150115  RH  100%=      5-min Rain = 0
KBY1 241113Z 07005KT 12/12 A3002 RMK A01 T01150115  RH  100%=      5-min Rain = 0
KBY1 241114Z 06005KT 12/12 A3002 RMK A01 T01150116  RH  100%=      5-min Rain = 0
KBY1 241115Z 06004KT 12/12 A3002 RMK A01 T01150115  RH  100%=      5-min Rain = 0
KBY1 241116Z 06004KT 12/12 A3002 RMK A01 T01150115  RH  100%=      5-min Rain = 0
KBY1 241117Z 08006KT 12/12 A3002 RMK A01 T01150115  RH  100%=      5-min Rain = 0
KBY1 241118Z 08005KT 12/12 A3002 RMK A01 T01150115  RH  100%=      5-min Rain = 0
KBY1 241119Z 09004KT 12/12 A3002 RMK A01 T01150115  RH  100%=      5-min Rain = 0
KBY1 241120Z 09004KT 12/12 A3002 RMK A01 T01150115  RH  100%=      5-min Rain = 0
KBY1 241121Z 09004KT 12/12 A3002 RMK A01 T01150115  RH  100%=      5-min Rain = 0
KBY1 241122Z 08005KT 12/12 A3002 RMK A01 T01150115  RH  100%=      5-min Rain = 0
KBY1 241123Z 08006KT 12/12 A3002 RMK A01 T01150115  RH  100%=      5-min Rain = 0
KBY1 241124Z 08005KT 12/12 A3002 RMK A01 T01150115  RH  100%=      5-min Rain = 0
KBY1 241125Z 08006KT 12/12 A3002 RMK A01 T01150116  RH  100%=      5-min Rain = 0
KBY1 241126Z 08006KT 12/12 A3002 RMK A01 T01150115  RH  100%=      5-min Rain = 0
KBY1 241127Z 08005KT 12/12 A3002 RMK A01 T01150115  RH  100%=      5-min Rain = 0
KBY1 241128Z 08006KT 12/12 A3002 RMK A01 T01150115  RH  100%=      5-min Rain = 0
KBY1 241129Z 08006KT 12/12 A3002 RMK A01 T01150115  RH  100%=      5-min Rain = 0
KBY1 241130Z 08006KT 12/12 A3002 RMK A01 T01150115  RH  100%=      5-min Rain = 0
KBY1 241131Z 08006KT 12/12 A3002 RMK A01 T01150115  RH  100%=      5-min Rain = 0
KBY1 241132Z 08005KT 12/12 A3002 RMK A01 T01150115  RH  100%=      5-min Rain = 0
KBY1 241133Z 08005KT 12/12 A3002 RMK A01 T01150115  RH  100%=      5-min Rain = 0
KBY1 241134Z 08005KT 12/12 A3002 RMK A01 T01150115  RH  100%=      5-min Rain = 0
KBY1 241135Z 07005KT 12/12 A3002 RMK A01 T01150115  RH  100%=      5-min Rain = 0
KBY1 241136Z 08005KT 12/12 A3002 RMK A01 T01150115  RH  100%=      5-min Rain = 0
KBY1 241137Z 07005KT 12/12 A3002 RMK A01 T01150115  RH  100%=      5-min Rain = 0
KBY1 241138Z 07004KT 12/12 A3002 RMK A01 T01150115  RH  100%=      5-min Rain = 0
KBY1 241139Z 08004KT 12/12 A3002 RMK A01 T01150115  RH  100%=      5-min Rain = 0
KBY1 241140Z 08005KT 12/12 A3002 RMK A01 T01150115  RH  100%=      5-min Rain = 0
KBY1 241141Z 08005KT 12/12 A3002 RMK A01 T01150115  RH  100%=      5-min Rain = 0
KBY1 241142Z 08004KT 12/12 A3002 RMK A01 T01150115  RH  100%=      5-min Rain = 0
KBY1 241143Z 08004KT 12/12 A3002 RMK A01 T01150115  RH  100%=      5-min Rain = 0
KBY1 241144Z 09005KT 12/12 A3002 RMK A01 T01150115  RH  100%=      5-min Rain = 0
KBY1 241145Z 09005KT 12/12 A3002 RMK A01 T01150115  RH  100%=      5-min Rain = 0
KBY1 241146Z 08006KT 12/12 A3002 RMK A01 T01150115  RH  100%=      5-min Rain = 0
KBY1 241147Z 09006KT 12/12 A3002 RMK A01 T01150116  RH  100%=      5-min Rain = 0
KBY1 241148Z 09005KT 12/12 A3003 RMK A01 T01150116  RH  100%=      5-min Rain = 0
KBY1 241149Z 10003KT 12/12 A3003 RMK A01 T01150115  RH  100%=      5-min Rain = 0
KBY1 241150Z 09003KT 12/12 A3003 RMK A01 T01160116  RH  100%=      5-min Rain = 0
KBY1 241151Z 09003KT 12/12 A3002 RMK A01 T01160116  RH  100%=      5-min Rain = 0
KBY1 241152Z 08004KT 12/12 A3002 RMK A01 T01160116  RH  100%=      5-min Rain = 0
KBY1 241153Z 07003KT 12/12 A3002 RMK A01 T01160116  RH  100%=      5-min Rain = 0
KBY1 241154Z 08003KT 12/12 A3002 RMK A01 T01150116  RH  100%=      5-min Rain = 0
KBY1 241155Z 09004KT 12/12 A3002 RMK A01 T01160116  RH  100%=      5-min Rain = 0
KBY1 241156Z 09004KT 12/12 A3003 RMK A01 T01160116  RH  100%=      5-min Rain = 0
KBY1 241157Z 08004KT 12/12 A3003 RMK A01 T01160116  RH  100%=      5-min Rain = 0
KBY1 241158Z 08003KT 12/12 A3003 RMK A01 T01160116  RH  100%=      5-min Rain = 0
KBY1 241159Z 08003KT 12/12 A3003 RMK A01 T01160116  RH  100%=      5-min Rain = 0
KBY1 241200Z 08004KT 12/12 A3003 RMK A01 T01160116  RH  100%=      5-min Rain = 0
KBY1 241201Z 08004KT 12/12 A3003 RMK A01 T01160116  RH  100%=      5-min Rain = 0
KBY1 241202Z 08003KT 12/12 A3003 RMK A01 T01160116  RH  100%=      5-min Rain = 0
KBY1 241203Z 09003KT 12/12 A3003 RMK A01 T01160116  RH  100%=      5-min Rain = 0
KBY1 241204Z 10004KT 12/12 A3003 RMK A01 T01160116  RH  100%=      5-min Rain = 0
KBY1 241205Z 09003KT 12/12 A3003 RMK A01 T01170117  RH  100%=      5-min Rain = 0
KBY1 241206Z 09003KT 12/12 A3003 RMK A01 T01170117  RH  100%=      5-min Rain = 0
KBY1 241207Z 08004KT 12/12 A3003 RMK A01 T01170117  RH  100%=      5-min Rain = 0
KBY1 241208Z 08004KT 12/12 A3003 RMK A01 T01170117  RH  100%=      5-min Rain = 0
KBY1 241209Z 07004KT 12/12 A3003 RMK A01 T01170117  RH  100%=      5-min Rain = 0
KBY1 241210Z 08004KT 12/12 A3003 RMK A01 T01170117  RH  100%=      5-min Rain = 0
KBY1 241211Z 09003KT 12/12 A3003 RMK A01 T01170117  RH  100%=      5-min Rain = 0
KBY1 241212Z 08003KT 12/12 A3003 RMK A01 T01160116  RH  100%=      5-min Rain = 0
KBY1 241213Z 07004KT 12/12 A3003 RMK A01 T01160116  RH  100%=      5-min Rain = 0
KBY1 241214Z 06004KT 12/12 A3003 RMK A01 T01170117  RH  100%=      5-min Rain = 0
KBY1 241215Z 07003KT 12/12 A3003 RMK A01 T01170117  RH  100%=      5-min Rain = 0
KBY1 241216Z 07003KT 12/12 A3003 RMK A01 T01170117  RH  100%=      5-min Rain = 0
KBY1 241217Z 07003KT 12/12 A3003 RMK A01 T01170117  RH  100%=      5-min Rain = 0
KBY1 241218Z 07003KT 12/12 A3003 RMK A01 T01170117  RH  100%=      5-min Rain = 0
KBY1 241219Z 08002KT 12/12 A3003 RMK A01 T01170117  RH  100%=      5-min Rain = 0
KBY1 241220Z 08003KT 12/12 A3003 RMK A01 T01170117  RH  100%=      5-min Rain = 0
KBY1 241221Z 07003KT 12/12 A3003 RMK A01 T01170117  RH  100%=      5-min Rain = 0
KBY1 241222Z 07003KT 12/12 A3003 RMK A01 T01170117  RH  100%=      5-min Rain = 0
KBY1 241223Z 06003KT 12/12 A3003 RMK A01 T01170117  RH  100%=      5-min Rain = 0
KBY1 241224Z 07002KT 12/12 A3003 RMK A01 T01170117  RH  100%=      5-min Rain = 0
KBY1 241225Z 07002KT 12/12 A3003 RMK A01 T01170117  RH  100%=      5-min Rain = 0
KBY1 241226Z 07002KT 12/12 A3003 RMK A01 T01170117  RH  100%=      5-min Rain = 0
KBY1 241227Z 07002KT 12/12 A3003 RMK A01 T01170117  RH  100%=      5-min Rain = 0
KBY1 241228Z 08002KT 12/12 A3003 RMK A01 T01170117  RH  100%=      5-min Rain = 0
KBY1 241229Z 07002KT 12/12 A3003 RMK A01 T01170117  RH  100%=      5-min Rain = 0
KBY1 241230Z 06002KT 12/12 A3003 RMK A01 T01170117  RH  100%=      5-min Rain = 0
KBY1 241231Z 05001KT 12/12 A3003 RMK A01 T01170118  RH  100%=      5-min Rain = 0
KBY1 241232Z 05001KT 12/12 A3003 RMK A01 T01180118  RH  100%=      5-min Rain = 0
KBY1 241233Z 06001KT 12/12 A3003 RMK A01 T01180118  RH  100%=      5-min Rain = 0
KBY1 241234Z 06001KT 12/12 A3003 RMK A01 T01180118  RH  100%=      5-min Rain = 0
KBY1 241235Z 05001KT 12/12 A3003 RMK A01 T01180118  RH  100%=      5-min Rain = 0
KBY1 241236Z 03001KT 12/12 A3003 RMK A01 T01190119  RH  100%=      5-min Rain = 0
KBY1 241237Z 01001KT 12/12 A3003 RMK A01 T01190119  RH  100%=      5-min Rain = 0
KBY1 241238Z 00001KT 12/12 A3003 RMK A01 T01180118  RH  100%=      5-min Rain = 0
KBY1 241239Z 03002KT 12/12 A3003 RMK A01 T01180118  RH  100%=      5-min Rain = 0
KBY1 241240Z 03002KT 12/12 A3003 RMK A01 T01180118  RH  100%=      5-min Rain = 0
KBY1 241241Z 03002KT 12/12 A3003 RMK A01 T01180118  RH  100%=      5-min Rain = 0
KBY1 241242Z 04002KT 12/12 A3003 RMK A01 T01180118  RH  100%=      5-min Rain = 0
KBY1 241243Z 03002KT 12/12 A3003 RMK A01 T01180118  RH  100%=      5-min Rain = 0
KBY1 241244Z 03001KT 12/12 A3003 RMK A01 T01180118  RH  100%=      5-min Rain = 0
KBY1 241245Z 00001KT 12/12 A3003 RMK A01 T01180118  RH  100%=      5-min Rain = 0
KBY1 241246Z 34001KT 12/12 A3003 RMK A01 T01180118  RH  100%=      5-min Rain = 0
KBY1 241247Z 32001KT 12/12 A3003 RMK A01 T01180118  RH  100%=      5-min Rain = 0
KBY1 241248Z 33000KT 12/12 A3003 RMK A01 T01180119  RH  100%=      5-min Rain = 0
KBY1 241249Z 32001KT 12/12 A3003 RMK A01 T01190119  RH  100%=      5-min Rain = 0
KBY1 241250Z 32002KT 12/12 A3003 RMK A01 T01200120  RH  100%=      5-min Rain = 0
KBY1 241251Z 32002KT 12/12 A3003 RMK A01 T01200120  RH  100%=      5-min Rain = 0
KBY1 241252Z 32001KT 12/12 A3003 RMK A01 T01200120  RH  100%=      5-min Rain = 0
KBY1 241253Z 33001KT 12/12 A3003 RMK A01 T01200120  RH  100%=      5-min Rain = 0
KBY1 241254Z 33001KT 12/12 A3004 RMK A01 T01200120  RH  100%=      5-min Rain = 0
KBY1 241255Z 35001KT 12/12 A3003 RMK A01 T01210121  RH  100%=      5-min Rain = 0
KBY1 241256Z 34002KT 12/12 A3003 RMK A01 T01210121  RH  100%=      5-min Rain = 0
KBY1 241257Z 33002KT 12/12 A3003 RMK A01 T01200120  RH  100%=      5-min Rain = 0
KBY1 241258Z 33002KT 12/12 A3003 RMK A01 T01200120  RH  100%=      5-min Rain = 0
KBY1 241259Z 33002KT 12/12 A3003 RMK A01 T01210121  RH  100%=      5-min Rain = 0
KBY1 241300Z 32001KT 12/12 A3003 RMK A01 T01210120  RH  099%=      5-min Rain = 0
KBY1 241301Z 34001KT 12/12 A3003 RMK A01 T01210120  RH  099%=      5-min Rain = 0
KBY1 241302Z 00001KT 12/12 A3003 RMK A01 T01210120  RH  099%=      5-min Rain = 0
KBY1 241303Z 36001KT 12/12 A3003 RMK A01 T01210119  RH  099%=      5-min Rain = 0
KBY1 241304Z 33001KT 12/12 A3003 RMK A01 T01220119  RH  098%=      5-min Rain = 0
KBY1 241305Z 33001KT 12/12 A3003 RMK A01 T01220119  RH  098%=      5-min Rain = 0
KBY1 241306Z 33002KT 12/12 A3003 RMK A01 T01220119  RH  098%=      5-min Rain = 0
KBY1 241307Z 34002KT 12/12 A3003 RMK A01 T01220119  RH  098%=      5-min Rain = 0
KBY1 241308Z 33002KT 12/12 A3003 RMK A01 T01220118  RH  097%=      5-min Rain = 0
KBY1 241309Z 33001KT 12/12 A3003 RMK A01 T01220117  RH  097%=      5-min Rain = 0
KBY1 241310Z 30001KT 12/12 A3003 RMK A01 T01220117  RH  097%=      5-min Rain = 0
KBY1 241311Z 31000KT 12/12 A3004 RMK A01 T01240119  RH  097%=      5-min Rain = 0
KBY1 241312Z 25000KT 13/12 A3004 RMK A01 T01250120  RH  097%=      5-min Rain = 0
KBY1 241313Z 26001KT 13/12 A3004 RMK A01 T01260121  RH  097%=      5-min Rain = 0
KBY1 241314Z 26001KT 13/12 A3004 RMK A01 T01260120  RH  096%=      5-min Rain = 0
KBY1 241315Z 26003KT 13/12 A3003 RMK A01 T01270121  RH  096%=      5-min Rain = 0
KBY1 241316Z 30002KT 13/12 A3003 RMK A01 T01260119  RH  095%=      5-min Rain = 0
KBY1 241317Z 34001KT 13/12 A3004 RMK A01 T01260119  RH  095%=      5-min Rain = 0
KBY1 241318Z 01001KT 13/12 A3004 RMK A01 T01260117  RH  094%=      5-min Rain = 0
KBY1 241319Z 04001KT 13/11 A3004 RMK A01 T01250114  RH  093%=      5-min Rain = 0
KBY1 241320Z 04001KT 13/11 A3004 RMK A01 T01250113  RH  092%=      5-min Rain = 0
KBY1 241321Z 07001KT 13/11 A3004 RMK A01 T01250113  RH  092%=      5-min Rain = 0
KBY1 241322Z 07000KT 13/11 A3004 RMK A01 T01250112  RH  092%=      5-min Rain = 0
KBY1 241323Z 00000KT 13/11 A3004 RMK A01 T01250113  RH  092%=      5-min Rain = 0
KBY1 241324Z 32000KT 13/11 A3003 RMK A01 T01260114  RH  092%=      5-min Rain = 0
KBY1 241325Z 31000KT 13/12 A3003 RMK A01 T01280115  RH  092%=      5-min Rain = 0
KBY1 241326Z 34002KT 13/12 A3003 RMK A01 T01290117  RH  092%=      5-min Rain = 0
KBY1 241327Z 35002KT 13/11 A3003 RMK A01 T01290113  RH  090%=      5-min Rain = 0
KBY1 241328Z 33001KT 13/11 A3003 RMK A01 T01290113  RH  090%=      5-min Rain = 0
KBY1 241329Z 32001KT 13/11 A3003 RMK A01 T01290112  RH  090%=      5-min Rain = 0
KBY1 241330Z 34001KT 13/11 A3003 RMK A01 T01300113  RH  089%=      5-min Rain = 0
KBY1 241331Z 36001KT 13/11 A3003 RMK A01 T01300112  RH  088%=      5-min Rain = 0
KBY1 241332Z 36001KT 13/11 A3003 RMK A01 T01300108  RH  086%=      5-min Rain = 0
KBY1 241333Z 35000KT 13/11 A3004 RMK A01 T01300107  RH  086%=      5-min Rain = 0
KBY1 241334Z 31001KT 13/11 A3004 RMK A01 T01300106  RH  085%=      5-min Rain = 0
KBY1 241335Z 31002KT 13/11 A3004 RMK A01 T01300106  RH  085%=      5-min Rain = 0
KBY1 241336Z 34002KT 13/11 A3004 RMK A01 T01310107  RH  086%=      5-min Rain = 0
KBY1 241337Z 30001KT 13/11 A3004 RMK A01 T01310105  RH  085%=      5-min Rain = 0
KBY1 241338Z 31001KT 13/11 A3004 RMK A01 T01300106  RH  086%=      5-min Rain = 0
KBY1 241339Z 31002KT 13/11 A3004 RMK A01 T01300110  RH  088%=      5-min Rain = 0
KBY1 241340Z 31002KT 13/11 A3004 RMK A01 T01300109  RH  087%=      5-min Rain = 0
KBY1 241341Z 34001KT 13/11 A3003 RMK A01 T01300108  RH  087%=      5-min Rain = 0
KBY1 241342Z 36001KT 13/11 A3003 RMK A01 T01300111  RH  088%=      5-min Rain = 0
KBY1 241343Z 35001KT 13/11 A3003 RMK A01 T01300111  RH  088%=      5-min Rain = 0
KBY1 241344Z 32001KT 13/11 A3003 RMK A01 T01300110  RH  088%=      5-min Rain = 0
KBY1 241345Z 31001KT 13/11 A3004 RMK A01 T01300110  RH  087%=      5-min Rain = 0
KBY1 241346Z 29001KT 13/11 A3004 RMK A01 T01310110  RH  087%=      5-min Rain = 0
KBY1 241347Z 28001KT 13/11 A3004 RMK A01 T01310109  RH  087%=      5-min Rain = 0
KBY1 241348Z 28001KT 13/11 A3004 RMK A01 T01300109  RH  087%=      5-min Rain = 0
KBY1 241349Z 28001KT 13/11 A3003 RMK A01 T01300109  RH  087%=      5-min Rain = 0
KBY1 241350Z 27000KT 13/11 A3003 RMK A01 T01300109  RH  087%=      5-min Rain = 0
KBY1 241351Z 28000KT 13/11 A3004 RMK A01 T01300111  RH  088%=      5-min Rain = 0
KBY1 241352Z 00000KT 13/11 A3004 RMK A01 T01300111  RH  088%=      5-min Rain = 0
KBY1 241353Z 25002KT 13/11 A3004 RMK A01 T01300112  RH  089%=      5-min Rain = 0
KBY1 241354Z 25002KT 13/11 A3004 RMK A01 T01300112  RH  089%=      5-min Rain = 0
KBY1 241355Z 26003KT 13/11 A3004 RMK A01 T01310112  RH  088%=      5-min Rain = 0
KBY1 241356Z 28003KT 13/11 A3004 RMK A01 T01310111  RH  088%=      5-min Rain = 0
KBY1 241357Z 28002KT 13/11 A3004 RMK A01 T01300111  RH  088%=      5-min Rain = 0
KBY1 241358Z 26002KT 13/11 A3004 RMK A01 T01300111  RH  088%=      5-min Rain = 0
KBY1 241359Z 27002KT 13/11 A3004 RMK A01 T01300111  RH  088%=      5-min Rain = 0
KBY1 241400Z 26002KT 13/11 A3004 RMK A01 T01300113  RH  089%=      5-min Rain = 0
KBY1 241401Z 27003KT 13/12 A3004 RMK A01 T01310115  RH  090%=      5-min Rain = 0
KBY1 241402Z 27003KT 13/12 A3004 RMK A01 T01320117  RH  090%=      5-min Rain = 0
KBY1 241403Z 27001KT 13/11 A3004 RMK A01 T01330114  RH  088%=      5-min Rain = 0
KBY1 241404Z 26001KT 13/11 A3004 RMK A01 T01320113  RH  088%=      5-min Rain = 0
KBY1 241405Z 28001KT 13/11 A3004 RMK A01 T01320114  RH  089%=      5-min Rain = 0
KBY1 241406Z 30003KT 13/12 A3003 RMK A01 T01330115  RH  089%=      5-min Rain = 0
KBY1 241407Z 29003KT 13/11 A3003 RMK A01 T01340114  RH  088%=      5-min Rain = 0
KBY1 241408Z 28002KT 13/11 A3004 RMK A01 T01340114  RH  087%=      5-min Rain = 0
KBY1 241409Z 25001KT 13/11 A3004 RMK A01 T01340113  RH  087%=      5-min Rain = 0
KBY1 241410Z 25001KT 13/11 A3004 RMK A01 T01340113  RH  087%=      5-min Rain = 0
KBY1 241411Z 28001KT 14/11 A3004 RMK A01 T01350113  RH  087%=      5-min Rain = 0
KBY1 241412Z 26002KT 14/11 A3004 RMK A01 T01360114  RH  087%=      5-min Rain = 0
KBY1 241413Z 28003KT 14/12 A3003 RMK A01 T01370115  RH  087%=      5-min Rain = 0
KBY1 241414Z 28002KT 14/11 A3003 RMK A01 T01370112  RH  085%=      5-min Rain = 0
KBY1 241415Z 27003KT 14/12 A3003 RMK A01 T01380116  RH  087%=      5-min Rain = 0
KBY1 241416Z 27003KT 14/12 A3003 RMK A01 T01400115  RH  085%=      5-min Rain = 0
KBY1 241417Z 28002KT 14/11 A3004 RMK A01 T01390112  RH  084%=      5-min Rain = 0
KBY1 241418Z 26002KT 14/11 A3003 RMK A01 T01390113  RH  085%=      5-min Rain = 0
KBY1 241419Z 27001KT 14/11 A3003 RMK A01 T01380114  RH  085%=      5-min Rain = 0
KBY1 241420Z 27003KT 14/11 A3003 RMK A01 T01380114  RH  085%=      5-min Rain = 0
KBY1 241421Z 28002KT 14/11 A3003 RMK A01 T01390114  RH  085%=      5-min Rain = 0
KBY1 241422Z 32002KT 14/12 A3003 RMK A01 T01390116  RH  086%=      5-min Rain = 0
KBY1 241423Z 28001KT 14/12 A3003 RMK A01 T01390118  RH  087%=      5-min Rain = 0
KBY1 241424Z 27004KT 14/12 A3004 RMK A01 T01410119  RH  087%=      5-min Rain = 0
KBY1 241425Z 27003KT 14/12 A3004 RMK A01 T01410117  RH  085%=      5-min Rain = 0
KBY1 241426Z 26003KT 14/12 A3003 RMK A01 T01410117  RH  086%=      5-min Rain = 0
KBY1 241427Z 26004KT 14/12 A3003 RMK A01 T01420118  RH  086%=      5-min Rain = 0
KBY1 241428Z 27004KT 14/12 A3003 RMK A01 T01420118  RH  086%=      5-min Rain = 0
KBY1 241429Z 26006KT 14/12 A3003 RMK A01 T01420117  RH  085%=      5-min Rain = 0
KBY1 241430Z 26004KT 14/12 A3003 RMK A01 T01420117  RH  085%=      5-min Rain = 0
KBY1 241431Z 26003KT 14/12 A3003 RMK A01 T01420117  RH  085%=      5-min Rain = 0
KBY1 241432Z 26003KT 14/12 A3003 RMK A01 T01430118  RH  085%=      5-min Rain = 0
KBY1 241433Z 26003KT 14/12 A3003 RMK A01 T01440118  RH  084%=      5-min Rain = 0
KBY1 241434Z 25003KT 15/12 A3003 RMK A01 T01450117  RH  084%=      5-min Rain = 0
KBY1 241435Z 26003KT 15/12 A3003 RMK A01 T01460117  RH  083%=      5-min Rain = 0
KBY1 241436Z 29003KT 15/12 A3003 RMK A01 T01460118  RH  083%=      5-min Rain = 0
KBY1 241437Z 30001KT 15/12 A3003 RMK A01 T01470119  RH  083%=      5-min Rain = 0
KBY1 241438Z 26004KT 15/12 A3003 RMK A01 T01470116  RH  082%=      5-min Rain = 0
KBY1 241439Z 27002KT 15/11 A3003 RMK A01 T01470114  RH  081%=      5-min Rain = 0
KBY1 241440Z 25003KT 15/12 A3003 RMK A01 T01470116  RH  082%=      5-min Rain = 0
KBY1 241441Z 28005KT 15/12 A3003 RMK A01 T01490121  RH  083%=      5-min Rain = 0
KBY1 241442Z 29004KT 15/12 A3003 RMK A01 T01500119  RH  082%=      5-min Rain = 0
KBY1 241443Z 27004KT 15/12 A3003 RMK A01 T01500119  RH  082%=      5-min Rain = 0
KBY1 241444Z 28004KT 15/12 A3003 RMK A01 T01480117  RH  082%=      5-min Rain = 0
KBY1 241445Z 27004KT 15/12 A3003 RMK A01 T01470118  RH  083%=      5-min Rain = 0
KBY1 241446Z 27004KT 15/12 A3003 RMK A01 T01460117  RH  083%=      5-min Rain = 0
KBY1 241447Z 25004KT 15/12 A3003 RMK A01 T01460118  RH  084%=      5-min Rain = 0
KBY1 241448Z 26004KT 15/12 A3003 RMK A01 T01450116  RH  083%=      5-min Rain = 0
KBY1 241449Z 25005KT 14/12 A3003 RMK A01 T01440118  RH  084%=      5-min Rain = 0
KBY1 241450Z 25004KT 14/12 A3003 RMK A01 T01440118  RH  084%=      5-min Rain = 0
KBY1 241451Z 24004KT 14/12 A3003 RMK A01 T01440119  RH  085%=      5-min Rain = 0
KBY1 241452Z 26006KT 14/12 A3003 RMK A01 T01440118  RH  084%=      5-min Rain = 0
KBY1 241453Z 27005KT 14/12 A3003 RMK A01 T01440120  RH  085%=      5-min Rain = 0
KBY1 241454Z 27004KT 14/12 A3003 RMK A01 T01440120  RH  085%=      5-min Rain = 0
KBY1 241455Z 24004KT 14/12 A3004 RMK A01 T01440121  RH  086%=      5-min Rain = 0
KBY1 241456Z 25004KT 15/12 A3004 RMK A01 T01450120  RH  085%=      5-min Rain = 0
KBY1 241457Z 25004KT 15/12 A3004 RMK A01 T01450118  RH  084%=      5-min Rain = 0
KBY1 241458Z 25005KT 15/12 A3004 RMK A01 T01460123  RH  086%=      5-min Rain = 0
KBY1 241459Z 24005KT 15/12 A3004 RMK A01 T01480124  RH  085%=      5-min Rain = 0
KBY1 241500Z 24005KT 15/12 A3004 RMK A01 T01480121  RH  084%=      5-min Rain = 0
KBY1 241501Z 24006KT 15/12 A3004 RMK A01 T01480124  RH  086%=      5-min Rain = 0
KBY1 241502Z 25006KT 15/12 A3004 RMK A01 T01490123  RH  085%=      5-min Rain = 0
KBY1 241503Z 25007KT 15/13 A3004 RMK A01 T01490125  RH  086%=      5-min Rain = 0
KBY1 241504Z 25006KT 15/12 A3004 RMK A01 T01480124  RH  085%=      5-min Rain = 0
KBY1 241505Z 25007KT 15/12 A3004 RMK A01 T01480124  RH  086%=      5-min Rain = 0
KBY1 241506Z 24007KT 15/13 A3004 RMK A01 T01480125  RH  086%=      5-min Rain = 0
KBY1 241507Z 24006KT 15/13 A3004 RMK A01 T01480126  RH  086%=      5-min Rain = 0
KBY1 241508Z 25005KT 15/13 A3004 RMK A01 T01470126  RH  087%=      5-min Rain = 0
KBY1 241509Z 26006KT 15/13 A3004 RMK A01 T01470126  RH  087%=      5-min Rain = 0
KBY1 241510Z 26005KT 15/12 A3004 RMK A01 T01460122  RH  085%=      5-min Rain = 0
KBY1 241511Z 26006KT 14/12 A3004 RMK A01 T01440121  RH  086%=      5-min Rain = 0
KBY1 241512Z 26005KT 14/12 A3004 RMK A01 T01430122  RH  087%=      5-min Rain = 0
KBY1 241513Z 27005KT 14/12 A3004 RMK A01 T01430123  RH  088%=      5-min Rain = 0
KBY1 241514Z 25006KT 14/12 A3004 RMK A01 T01420121  RH  087%=      5-min Rain = 0
KBY1 241515Z 27005KT 14/12 A3004 RMK A01 T01420123  RH  088%=      5-min Rain = 0
KBY1 241516Z 25006KT 14/12 A3004 RMK A01 T01420123  RH  088%=      5-min Rain = 0
KBY1 241517Z 26005KT 14/12 A3004 RMK A01 T01420123  RH  088%=      5-min Rain = 0
KBY1 241518Z 27005KT 14/12 A3004 RMK A01 T01420124  RH  089%=      5-min Rain = 0
KBY1 241519Z 27004KT 14/13 A3004 RMK A01 T01430127  RH  090%=      5-min Rain = 0
KBY1 241520Z 26006KT 14/13 A3004 RMK A01 T01440127  RH  089%=      5-min Rain = 0
KBY1 241521Z 26006KT 14/13 A3004 RMK A01 T01440125  RH  088%=      5-min Rain = 0
KBY1 241522Z 28006KT 14/12 A3004 RMK A01 T01440124  RH  088%=      5-min Rain = 0
KBY1 241523Z 26005KT 14/12 A3004 RMK A01 T01420123  RH  088%=      5-min Rain = 0
KBY1 241524Z 25007KT 14/13 A3004 RMK A01 T01420125  RH  090%=      5-min Rain = 0
KBY1 241525Z 26007KT 14/13 A3004 RMK A01 T01420125  RH  090%=      5-min Rain = 0
KBY1 241526Z 26006KT 14/12 A3004 RMK A01 T01410124  RH  089%=      5-min Rain = 0
KBY1 241527Z 24006KT 14/12 A3004 RMK A01 T01400124  RH  090%=      5-min Rain = 0
KBY1 241528Z 25006KT 14/12 A3004 RMK A01 T01400124  RH  090%=      5-min Rain = 0
KBY1 241529Z 27005KT 14/12 A3004 RMK A01 T01400123  RH  090%=      5-min Rain = 0
KBY1 241530Z 27005KT 14/13 A3004 RMK A01 T01400126  RH  091%=      5-min Rain = 0
KBY1 241531Z 27004KT 14/13 A3004 RMK A01 T01410125  RH  090%=      5-min Rain = 0
KBY1 241532Z 28004KT 14/13 A3004 RMK A01 T01410125  RH  090%=      5-min Rain = 0
KBY1 241533Z 28003KT 14/13 A3004 RMK A01 T01420125  RH  090%=      5-min Rain = 0
KBY1 241534Z 25005KT 14/13 A3004 RMK A01 T01420125  RH  090%=      5-min Rain = 0
KBY1 241535Z 25005KT 14/12 A3004 RMK A01 T01410123  RH  089%=      5-min Rain = 0
KBY1 241536Z 24004KT 14/12 A3004 RMK A01 T01400123  RH  089%=      5-min Rain = 0
KBY1 241537Z 23004KT 14/12 A3004 RMK A01 T01390123  RH  090%=      5-min Rain = 0
KBY1 241538Z 24003KT 14/13 A3004 RMK A01 T01380125  RH  091%=      5-min Rain = 0
KBY1 241539Z 23003KT 14/13 A3004 RMK A01 T01390126  RH  092%=      5-min Rain = 0
KBY1 241540Z 23004KT 14/13 A3004 RMK A01 T01390125  RH  091%=      5-min Rain = 0
KBY1 241541Z 21003KT 14/12 A3005 RMK A01 T01390124  RH  091%=      5-min Rain = 0
KBY1 241542Z 27004KT 14/13 A3004 RMK A01 T01380126  RH  092%=      5-min Rain = 0
KBY1 241543Z 27003KT 14/13 A3004 RMK A01 T01390125  RH  091%=      5-min Rain = 0
KBY1 241544Z 25004KT 14/13 A3005 RMK A01 T01390125  RH  091%=      5-min Rain = 0
KBY1 241545Z 26005KT 14/13 A3005 RMK A01 T01400125  RH  090%=      5-min Rain = 0
KBY1 241546Z 26005KT 14/12 A3005 RMK A01 T01400123  RH  090%=      5-min Rain = 0
KBY1 241547Z 26006KT 14/12 A3005 RMK A01 T01400123  RH  090%=      5-min Rain = 0
KBY1 241548Z 26006KT 14/12 A3005 RMK A01 T01400123  RH  090%=      5-min Rain = 0
KBY1 241549Z 27005KT 14/12 A3005 RMK A01 T01400124  RH  090%=      5-min Rain = 0
KBY1 241550Z 26005KT 14/13 A3005 RMK A01 T01410125  RH  090%=      5-min Rain = 0
KBY1 241551Z 27004KT 14/12 A3005 RMK A01 T01400123  RH  089%=      5-min Rain = 0
KBY1 241552Z 26003KT 14/12 A3005 RMK A01 T01400123  RH  089%=      5-min Rain = 0
KBY1 241553Z 26002KT 14/12 A3005 RMK A01 T01400124  RH  090%=      5-min Rain = 0
KBY1 241554Z 23004KT 14/13 A3005 RMK A01 T01410128  RH  092%=      5-min Rain = 0
KBY1 241555Z 22003KT 14/13 A3005 RMK A01 T01420125  RH  090%=      5-min Rain = 0
KBY1 241556Z 23003KT 14/13 A3005 RMK A01 T01420126  RH  090%=      5-min Rain = 0
KBY1 241557Z 24003KT 14/12 A3005 RMK A01 T01420124  RH  089%=      5-min Rain = 0
KBY1 241558Z 24002KT 14/13 A3005 RMK A01 T01420125  RH  090%=      5-min Rain = 0
KBY1 241559Z 28004KT 14/13 A3005 RMK A01 T01420127  RH  091%=      5-min Rain = 0
KBY1 241600Z 28004KT 14/12 A3004 RMK A01 T01420124  RH  089%=      5-min Rain = 0
KBY1 241601Z 28006KT 14/12 A3004 RMK A01 T01410123  RH  089%=      5-min Rain = 0
KBY1 241602Z 26007KT 14/12 A3004 RMK A01 T01410124  RH  089%=      5-min Rain = 0
KBY1 241603Z 26006KT 14/12 A3004 RMK A01 T01400123  RH  089%=      5-min Rain = 0
KBY1 241604Z 27005KT 14/12 A3004 RMK A01 T01400123  RH  090%=      5-min Rain = 0
KBY1 241605Z 28005KT 14/12 A3005 RMK A01 T01400122  RH  089%=      5-min Rain = 0
KBY1 241606Z 27006KT 14/12 A3004 RMK A01 T01390123  RH  090%=      5-min Rain = 0
KBY1 241607Z 27007KT 14/12 A3004 RMK A01 T01400123  RH  089%=      5-min Rain = 0
KBY1 241608Z 26005KT 14/12 A3004 RMK A01 T01400122  RH  089%=      5-min Rain = 0
KBY1 241609Z 26006KT 14/12 A3004 RMK A01 T01400122  RH  089%=      5-min Rain = 0
KBY1 241610Z 28006KT 14/13 A3004 RMK A01 T01410126  RH  090%=      5-min Rain = 0
KBY1 241611Z 28006KT 14/13 A3004 RMK A01 T01420125  RH  089%=      5-min Rain = 0
KBY1 241612Z 30006KT 14/13 A3004 RMK A01 T01430125  RH  089%=      5-min Rain = 0
KBY1 241613Z 29005KT 14/12 A3004 RMK A01 T01430123  RH  087%=      5-min Rain = 0
KBY1 241614Z 29005KT 14/12 A3004 RMK A01 T01430121  RH  087%=      5-min Rain = 0
KBY1 241615Z 29005KT 14/12 A3005 RMK A01 T01420120  RH  087%=      5-min Rain = 0
KBY1 241616Z 30004KT 14/12 A3005 RMK A01 T01410120  RH  087%=      5-min Rain = 0
KBY1 241617Z 27004KT 14/12 A3005 RMK A01 T01410121  RH  088%=      5-min Rain = 0
KBY1 241618Z 30005KT 14/12 A3005 RMK A01 T01410123  RH  089%=      5-min Rain = 0
KBY1 241619Z 31006KT 14/12 A3005 RMK A01 T01420123  RH  088%=      5-min Rain = 0
KBY1 241620Z 31006KT 14/12 A3004 RMK A01 T01420122  RH  088%=      5-min Rain = 0
KBY1 241621Z 31005KT 14/12 A3004 RMK A01 T01430122  RH  087%=      5-min Rain = 0
KBY1 241622Z 30004KT 14/12 A3004 RMK A01 T01430122  RH  087%=      5-min Rain = 0
KBY1 241623Z 26005KT 14/12 A3004 RMK A01 T01430122  RH  087%=      5-min Rain = 0
KBY1 241624Z 26005KT 14/13 A3004 RMK A01 T01440126  RH  089%=      5-min Rain = 0
KBY1 241625Z 27004KT 15/13 A3004 RMK A01 T01460125  RH  087%=      5-min Rain = 0
KBY1 241626Z 26004KT 15/12 A3004 RMK A01 T01460124  RH  087%=      5-min Rain = 0
KBY1 241627Z 27003KT 15/13 A3005 RMK A01 T01470127  RH  088%=      5-min Rain = 0
KBY1 241628Z 26003KT 15/12 A3005 RMK A01 T01470124  RH  086%=      5-min Rain = 0
KBY1 241629Z 29004KT 15/12 A3005 RMK A01 T01470124  RH  086%=      5-min Rain = 0
KBY1 241630Z 29004KT 15/12 A3005 RMK A01 T01470123  RH  085%=      5-min Rain = 0
KBY1 241631Z 31005KT 15/12 A3004 RMK A01 T01470123  RH  085%=      5-min Rain = 0
KBY1 241632Z 31005KT 15/12 A3004 RMK A01 T01470122  RH  085%=      5-min Rain = 0
KBY1 241633Z 30004KT 15/12 A3004 RMK A01 T01480122  RH  085%=      5-min Rain = 0
KBY1 241634Z 29005KT 15/12 A3004 RMK A01 T01480122  RH  084%=      5-min Rain = 0
KBY1 241635Z 29004KT 15/13 A3004 RMK A01 T01490125  RH  086%=      5-min Rain = 0
KBY1 241636Z 29006KT 15/13 A3004 RMK A01 T01520127  RH  085%=      5-min Rain = 0
KBY1 241637Z 26005KT 15/12 A3004 RMK A01 T01520124  RH  084%=      5-min Rain = 0
KBY1 241638Z 25007KT 15/13 A3004 RMK A01 T01520125  RH  084%=      5-min Rain = 0
KBY1 241639Z 26005KT 15/12 A3004 RMK A01 T01520124  RH  083%=      5-min Rain = 0
KBY1 241640Z 26004KT 15/12 A3004 RMK A01 T01520123  RH  083%=      5-min Rain = 0
KBY1 241641Z 23005KT 15/12 A3004 RMK A01 T01510124  RH  084%=      5-min Rain = 0
KBY1 241642Z 25004KT 15/13 A3004 RMK A01 T01510125  RH  084%=      5-min Rain = 0
KBY1 241643Z 27003KT 15/12 A3004 RMK A01 T01520123  RH  083%=      5-min Rain = 0
KBY1 241644Z 29003KT 15/13 A3004 RMK A01 T01510125  RH  084%=      5-min Rain = 0
KBY1 241645Z 27005KT 15/13 A3004 RMK A01 T01530125  RH  083%=      5-min Rain = 0
KBY1 241646Z 28004KT 15/12 A3003 RMK A01 T01530123  RH  082%=      5-min Rain = 0
KBY1 241647Z 29007KT 16/13 A3003 RMK A01 T01560127  RH  083%=      5-min Rain = 0
KBY1 241648Z 26007KT 16/12 A3003 RMK A01 T01570123  RH  080%=      5-min Rain = 0
KBY1 241649Z 26004KT 16/12 A3003 RMK A01 T01560120  RH  079%=      5-min Rain = 0
KBY1 241650Z 25007KT 16/13 A3003 RMK A01 T01560126  RH  082%=      5-min Rain = 0
KBY1 241651Z 26007KT 16/13 A3003 RMK A01 T01610131  RH  082%=      5-min Rain = 0
KBY1 241652Z 26007KT 16/12 A3003 RMK A01 T01620124  RH  078%=      5-min Rain = 0
KBY1 241653Z 26005KT 16/12 A3003 RMK A01 T01610124  RH  079%=      5-min Rain = 0
KBY1 241654Z 25004KT 16/12 A3003 RMK A01 T01600124  RH  079%=      5-min Rain = 0
KBY1 241655Z 24005KT 16/13 A3003 RMK A01 T01600127  RH  081%=      5-min Rain = 0
KBY1 241656Z 24004KT 16/13 A3003 RMK A01 T01610125  RH  080%=      5-min Rain = 0
KBY1 241657Z 29005KT 16/13 A3003 RMK A01 T01600126  RH  080%=      5-min Rain = 0
KBY1 241658Z 32006KT 16/13 A3003 RMK A01 T01610127  RH  080%=      5-min Rain = 0
KBY1 241659Z 31008KT 16/13 A3003 RMK A01 T01630126  RH  079%=      5-min Rain = 0
KBY1 241700Z 30007KT 16/12 A3003 RMK A01 T01610123  RH  078%=      5-min Rain = 0
KBY1 241701Z 30004KT 16/12 A3003 RMK A01 T01600121  RH  078%=      5-min Rain = 0
KBY1 241702Z 30002KT 16/12 A3003 RMK A01 T01580119  RH  078%=      5-min Rain = 0
KBY1 241703Z 25001KT 16/12 A3003 RMK A01 T01580122  RH  079%=      5-min Rain = 0
KBY1 241704Z 21003KT 16/12 A3003 RMK A01 T01580120  RH  078%=      5-min Rain = 0
KBY1 241705Z 24006KT 16/13 A3003 RMK A01 T01590125  RH  080%=      5-min Rain = 0
KBY1 241706Z 24005KT 16/12 A3003 RMK A01 T01600124  RH  079%=      5-min Rain = 0
KBY1 241707Z 21003KT 16/12 A3003 RMK A01 T01600124  RH  079%=      5-min Rain = 0
KBY1 241708Z 20002KT 16/13 A3003 RMK A01 T01620129  RH  081%=      5-min Rain = 0
KBY1 241709Z 27003KT 16/13 A3003 RMK A01 T01640126  RH  078%=      5-min Rain = 0
KBY1 241710Z 27004KT 17/12 A3003 RMK A01 T01650124  RH  077%=      5-min Rain = 0
KBY1 241711Z 31002KT 17/12 A3003 RMK A01 T01650124  RH  077%=      5-min Rain = 0
KBY1 241712Z 25002KT 17/13 A3003 RMK A01 T01660127  RH  078%=      5-min Rain = 0
KBY1 241713Z 28004KT 17/13 A3003 RMK A01 T01680130  RH  078%=      5-min Rain = 0
KBY1 241714Z 31001KT 17/13 A3003 RMK A01 T01690125  RH  075%=      5-min Rain = 0
KBY1 241715Z 35000KT 17/13 A3003 RMK A01 T01690134  RH  079%=      5-min Rain = 0
KBY1 241716Z 32002KT 17/14 A3003 RMK A01 T01730137  RH  079%=      5-min Rain = 0
KBY1 241717Z 26004KT 17/13 A3003 RMK A01 T01740126  RH  074%=      5-min Rain = 0
KBY1 241718Z 24002KT 17/12 A3003 RMK A01 T01710120  RH  072%=      5-min Rain = 0
KBY1 241719Z 20002KT 17/13 A3003 RMK A01 T01690127  RH  077%=      5-min Rain = 0
KBY1 241720Z 25002KT 17/13 A3003 RMK A01 T01690127  RH  076%=      5-min Rain = 0
KBY1 241721Z 26003KT 17/13 A3003 RMK A01 T01690130  RH  078%=      5-min Rain = 0
KBY1 241722Z 23002KT 17/13 A3003 RMK A01 T01720130  RH  077%=      5-min Rain = 0
KBY1 241723Z 23003KT 17/13 A3003 RMK A01 T01720126  RH  075%=      5-min Rain = 0
KBY1 241724Z 25000KT 17/12 A3003 RMK A01 T01690123  RH  074%=      5-min Rain = 0
KBY1 241725Z 20001KT 17/13 A3003 RMK A01 T01690128  RH  077%=      5-min Rain = 0
KBY1 241726Z 21004KT 17/13 A3003 RMK A01 T01710130  RH  077%=      5-min Rain = 0
KBY1 241727Z 22002KT 17/12 A3003 RMK A01 T01710124  RH  074%=      5-min Rain = 0
KBY1 241728Z 13001KT 17/12 A3003 RMK A01 T01690122  RH  074%=      5-min Rain = 0
KBY1 241729Z 11001KT 17/12 A3003 RMK A01 T01690122  RH  074%=      5-min Rain = 0
KBY1 241730Z 17001KT 17/13 A3002 RMK A01 T01690126  RH  076%=      5-min Rain = 0
KBY1 241731Z 16003KT 17/13 A3002 RMK A01 T01700128  RH  076%=      5-min Rain = 0
KBY1 241732Z 14002KT 17/13 A3002 RMK A01 T01720128  RH  075%=      5-min Rain = 0
KBY1 241733Z 10001KT 17/12 A3002 RMK A01 T01730124  RH  073%=      5-min Rain = 0
KBY1 241734Z 10000KT 17/12 A3002 RMK A01 T01720123  RH  073%=      5-min Rain = 0
KBY1 241735Z 08001KT 17/13 A3002 RMK A01 T01730133  RH  077%=      5-min Rain = 0
KBY1 241736Z 07001KT 18/13 A3002 RMK A01 T01760133  RH  076%=      5-min Rain = 0
KBY1 241737Z 09001KT 18/13 A3002 RMK A01 T01780129  RH  073%=      5-min Rain = 0
KBY1 241738Z 36002KT 18/13 A3002 RMK A01 T01790126  RH  071%=      5-min Rain = 0
KBY1 241739Z 03002KT 18/13 A3002 RMK A01 T01790127  RH  072%=      5-min Rain = 0
KBY1 241740Z 21002KT 18/14 A3002 RMK A01 T01810137  RH  076%=      5-min Rain = 0
KBY1 241741Z 24004KT 18/13 A3002 RMK A01 T01820129  RH  071%=      5-min Rain = 0
KBY1 241742Z 23004KT 18/12 A3002 RMK A01 T01810122  RH  068%=      5-min Rain = 0
KBY1 241743Z 25002KT 18/12 A3002 RMK A01 T01790121  RH  069%=      5-min Rain = 0
KBY1 241744Z 26002KT 18/12 A3002 RMK A01 T01780120  RH  069%=      5-min Rain = 0
KBY1 241745Z 26002KT 18/13 A3002 RMK A01 T01770126  RH  072%=      5-min Rain = 0
KBY1 241746Z 31002KT 18/13 A3002 RMK A01 T01780127  RH  072%=      5-min Rain = 0
KBY1 241747Z 04001KT 18/13 A3002 RMK A01 T01790126  RH  071%=      5-min Rain = 0
KBY1 241748Z 14002KT 18/13 A3002 RMK A01 T01800130  RH  072%=      5-min Rain = 0
KBY1 241749Z 15002KT 18/13 A3002 RMK A01 T01820126  RH  070%=      5-min Rain = 0
KBY1 241750Z 20001KT 18/13 A3002 RMK A01 T01830125  RH  069%=      5-min Rain = 0
KBY1 241751Z 19000KT 18/12 A3002 RMK A01 T01830121  RH  067%=      5-min Rain = 0
KBY1 241752Z 27000KT 18/12 A3002 RMK A01 T01830124  RH  068%=      5-min Rain = 0
KBY1 241753Z 22001KT 18/13 A3002 RMK A01 T01840126  RH  069%=      5-min Rain = 0
KBY1 241754Z 26001KT 18/13 A3002 RMK A01 T01840126  RH  069%=      5-min Rain = 0
KBY1 241755Z 24002KT 19/13 A3002 RMK A01 T01860126  RH  068%=      5-min Rain = 0
KBY1 241756Z 25003KT 19/12 A3001 RMK A01 T01870122  RH  066%=      5-min Rain = 0
KBY1 241757Z 26003KT 19/12 A3001 RMK A01 T01880121  RH  065%=      5-min Rain = 0
KBY1 241758Z 28004KT 19/12 A3001 RMK A01 T01870121  RH  065%=      5-min Rain = 0
KBY1 241759Z 29003KT 19/12 A3001 RMK A01 T01870124  RH  067%=      5-min Rain = 0
KBY1 241800Z 30003KT 19/12 A3001 RMK A01 T01880118  RH  063%=      5-min Rain = 0
KBY1 241801Z 31002KT 19/12 A3001 RMK A01 T01880115  RH  063%=      5-min Rain = 0
KBY1 241802Z 35002KT 19/12 A3001 RMK A01 T01870117  RH  064%=      5-min Rain = 0
KBY1 241803Z 23002KT 19/12 A3001 RMK A01 T01870118  RH  064%=      5-min Rain = 0
KBY1 241804Z 22004KT 19/12 A3001 RMK A01 T01880121  RH  065%=      5-min Rain = 0
KBY1 241805Z 23004KT 19/12 A3001 RMK A01 T01890118  RH  064%=      5-min Rain = 0
KBY1 241806Z 22004KT 19/11 A3001 RMK A01 T01880113  RH  061%=      5-min Rain = 0
KBY1 241807Z 21003KT 19/13 A3001 RMK A01 T01880126  RH  067%=      5-min Rain = 0
KBY1 241808Z 22003KT 19/12 A3001 RMK A01 T01900120  RH  064%=      5-min Rain = 0
KBY1 241809Z 26002KT 19/12 A30 RMK A01 T01920124  RH  065%=      5-min Rain = 0
KBY1 241810Z 25001KT 19/12 A30 RMK A01 T01920117  RH  062%=      5-min Rain = 0
KBY1 241811Z 01000KT 19/12 A30 RMK A01 T01920116  RH  061%=      5-min Rain = 0
KBY1 241812Z 05001KT 19/12 A30 RMK A01 T01920118  RH  062%=      5-min Rain = 0
KBY1 241813Z 05000KT 19/12 A30 RMK A01 T01930117  RH  062%=      5-min Rain = 0
KBY1 241814Z 01000KT 19/12 A30 RMK A01 T01930116  RH  061%=      5-min Rain = 0
KBY1 241815Z 01001KT 19/11 A30 RMK A01 T01930113  RH  060%=      5-min Rain = 0
KBY1 241816Z 05001KT 19/11 A30 RMK A01 T01930113  RH  060%=      5-min Rain = 0
KBY1 241817Z 02001KT 19/12 A30 RMK A01 T01930118  RH  062%=      5-min Rain = 0
KBY1 241818Z 05002KT 20/12 A30 RMK A01 T01950122  RH  063%=      5-min Rain = 0
KBY1 241819Z 14001KT 20/12 A30 RMK A01 T01960122  RH  062%=      5-min Rain = 0
KBY1 241820Z 19001KT 20/12 A30 RMK A01 T01970119  RH  061%=      5-min Rain = 0
KBY1 241821Z 18002KT 20/12 A30 RMK A01 T01980119  RH  060%=      5-min Rain = 0
KBY1 241822Z 18002KT 20/12 A30 RMK A01 T01980122  RH  061%=      5-min Rain = 0
KBY1 241823Z 17002KT 20/13 A30 RMK A01 T01980128  RH  064%=      5-min Rain = 0
KBY1 241824Z 15001KT 20/13 A30 RMK A01 T01990128  RH  063%=      5-min Rain = 0
KBY1 241825Z 17001KT 20/13 A30 RMK A01 T02010133  RH  065%=      5-min Rain = 0
KBY1 241826Z 17004KT 20/14 A30 RMK A01 T02030136  RH  065%=      5-min Rain = 0
KBY1 241827Z 16005KT 20/13 A30 RMK A01 T02040133  RH  063%=      5-min Rain = 0
KBY1 241828Z 16005KT 20/13 A30 RMK A01 T02030133  RH  064%=      5-min Rain = 0
KBY1 241829Z 15004KT 20/13 A30 RMK A01 T02010129  RH  063%=      5-min Rain = 0
KBY1 241830Z 13004KT 20/13 A30 RMK A01 T02000132  RH  065%=      5-min Rain = 0
KBY1 241831Z 14002KT 20/13 A30 RMK A01 T02000126  RH  062%=      5-min Rain = 0
KBY1 241832Z 16001KT 20/13 A30 RMK A01 T01990126  RH  063%=      5-min Rain = 0
KBY1 241833Z 09003KT 20/13 A30 RMK A01 T01990129  RH  064%=      5-min Rain = 0
KBY1 241834Z 09003KT 20/13 A30 RMK A01 T02010125  RH  062%=      5-min Rain = 0
KBY1 241835Z 07001KT 20/12 A30 RMK A01 T02000123  RH  061%=      5-min Rain = 0
KBY1 241836Z 10000KT 20/12 A30 RMK A01 T02000119  RH  060%=      5-min Rain = 0
KBY1 241837Z 17003KT 20/13 A30 RMK A01 T02000125  RH  062%=      5-min Rain = 0
KBY1 241838Z 19004KT 20/13 A30 RMK A01 T02010131  RH  064%=      5-min Rain = 0
KBY1 241839Z 20004KT 20/13 A2999 RMK A01 T02020129  RH  063%=      5-min Rain = 0
KBY1 241840Z 21003KT 20/13 A2999 RMK A01 T02030128  RH  062%=      5-min Rain = 0
KBY1 241841Z 20002KT 20/13 A2999 RMK A01 T02020127  RH  062%=      5-min Rain = 0
KBY1 241842Z 18001KT 20/13 A2999 RMK A01 T02030126  RH  061%=      5-min Rain = 0
KBY1 241843Z 23000KT 20/13 A2999 RMK A01 T02040126  RH  061%=      5-min Rain = 0
KBY1 241844Z 19002KT 21/13 A2999 RMK A01 T02050134  RH  063%=      5-min Rain = 0
KBY1 241845Z 20002KT 21/13 A2999 RMK A01 T02070133  RH  063%=      5-min Rain = 0
KBY1 241846Z 22001KT 21/13 A2999 RMK A01 T02070126  RH  060%=      5-min Rain = 0
KBY1 241847Z 23001KT 21/12 A2999 RMK A01 T02070123  RH  059%=      5-min Rain = 0
KBY1 241848Z 21000KT 21/13 A2999 RMK A01 T02070127  RH  060%=      5-min Rain = 0
KBY1 241849Z 14002KT 21/13 A2999 RMK A01 T02080129  RH  061%=      5-min Rain = 0
KBY1 241850Z 18000KT 21/12 A2999 RMK A01 T02080123  RH  058%=      5-min Rain = 0
KBY1 241851Z 14002KT 21/13 A2999 RMK A01 T02090127  RH  059%=      5-min Rain = 0
KBY1 241852Z 11003KT 21/13 A2999 RMK A01 T02090133  RH  062%=      5-min Rain = 0
KBY1 241853Z 12005KT 21/13 A2999 RMK A01 T02110132  RH  061%=      5-min Rain = 0
KBY1 241854Z 07003KT 21/13 A2999 RMK A01 T02110128  RH  059%=      5-min Rain = 0
KBY1 241855Z 11005KT 21/13 A2998 RMK A01 T02100132  RH  061%=      5-min Rain = 0
KBY1 241856Z 11005KT 21/13 A2998 RMK A01 T02100133  RH  061%=      5-min Rain = 0
KBY1 241857Z 10003KT 21/13 A2998 RMK A01 T02120128  RH  059%=      5-min Rain = 0
KBY1 241858Z 12005KT 21/13 A2998 RMK A01 T02120133  RH  061%=      5-min Rain = 0
KBY1 241859Z 13004KT 21/13 A2998 RMK A01 T02130125  RH  057%=      5-min Rain = 0
KBY1 241900Z 14002KT 21/12 A2998 RMK A01 T02120123  RH  057%=      5-min Rain = 0
KBY1 241901Z 11005KT 21/13 A2998 RMK A01 T02110126  RH  058%=      5-min Rain = 0
KBY1 241902Z 09003KT 21/13 A2998 RMK A01 T02110127  RH  059%=      5-min Rain = 0
KBY1 241903Z 09002KT 21/13 A2998 RMK A01 T02120126  RH  058%=      5-min Rain = 0
KBY1 241904Z 12003KT 21/13 A2998 RMK A01 T02130127  RH  058%=      5-min Rain = 0
KBY1 241905Z 12003KT 21/13 A2998 RMK A01 T02130127  RH  058%=      5-min Rain = 0
KBY1 241906Z 13003KT 21/13 A2998 RMK A01 T02140130  RH  059%=      5-min Rain = 0
KBY1 241907Z 13003KT 21/13 A2998 RMK A01 T02140126  RH  057%=      5-min Rain = 0
KBY1 241908Z 17002KT 21/13 A2998 RMK A01 T02140128  RH  058%=      5-min Rain = 0
KBY1 241909Z 14000KT 22/13 A2998 RMK A01 T02160128  RH  057%=      5-min Rain = 0
KBY1 241910Z 07002KT 22/13 A2998 RMK A01 T02170132  RH  059%=      5-min Rain = 0
KBY1 241911Z 12003KT 22/13 A2998 RMK A01 T02190133  RH  058%=      5-min Rain = 0
KBY1 241912Z 10004KT 22/13 A2998 RMK A01 T02210133  RH  057%=      5-min Rain = 0
KBY1 241913Z 09002KT 22/13 A2997 RMK A01 T02200125  RH  055%=      5-min Rain = 0
KBY1 241914Z 07003KT 22/13 A2997 RMK A01 T02190126  RH  055%=      5-min Rain = 0
KBY1 241915Z 06004KT 22/13 A2997 RMK A01 T02180128  RH  056%=      5-min Rain = 0
KBY1 241916Z 03002KT 22/13 A2997 RMK A01 T02180127  RH  056%=      5-min Rain = 0
KBY1 241917Z 07003KT 22/13 A2997 RMK A01 T02190133  RH  058%=      5-min Rain = 0
KBY1 241918Z 12005KT 22/13 A2997 RMK A01 T02210133  RH  058%=      5-min Rain = 0
KBY1 241919Z 12006KT 22/13 A2997 RMK A01 T02220131  RH  056%=      5-min Rain = 0
KBY1 241920Z 09004KT 22/13 A2997 RMK A01 T02220125  RH  054%=      5-min Rain = 0
KBY1 241921Z 11004KT 22/13 A2997 RMK A01 T02210133  RH  057%=      5-min Rain = 0
KBY1 241922Z 14005KT 22/12 A2997 RMK A01 T02230120  RH  052%=      5-min Rain = 0
KBY1 241923Z 14004KT 22/13 A2997 RMK A01 T02240126  RH  054%=      5-min Rain = 0
KBY1 241924Z 14002KT 23/12 A2997 RMK A01 T02250123  RH  052%=      5-min Rain = 0
KBY1 241925Z 09000KT 23/12 A2997 RMK A01 T02260120  RH  051%=      5-min Rain = 0
KBY1 241926Z 17000KT 23/12 A2997 RMK A01 T02270124  RH  052%=      5-min Rain = 0
KBY1 241927Z 31000KT 23/13 A2997 RMK A01 T02280127  RH  053%=      5-min Rain = 0
KBY1 241928Z 13003KT 23/13 A2997 RMK A01 T02300131  RH  054%=      5-min Rain = 0
KBY1 241929Z 13006KT 23/13 A2997 RMK A01 T02320129  RH  052%=      5-min Rain = 0
KBY1 241930Z 14003KT 24/13 A2996 RMK A01 T02350132  RH  052%=      5-min Rain = 0
KBY1 241931Z 17003KT 24/12 A2996 RMK A01 T02360124  RH  049%=      5-min Rain = 0
KBY1 241932Z 16002KT 24/13 A2996 RMK A01 T02350128  RH  051%=      5-min Rain = 0
KBY1 241933Z 18003KT 24/13 A2996 RMK A01 T02350127  RH  051%=      5-min Rain = 0
KBY1 241934Z 13004KT 24/12 A2996 RMK A01 T02350119  RH  048%=      5-min Rain = 0
KBY1 241935Z 10003KT 23/12 A2996 RMK A01 T02330116  RH  048%=      5-min Rain = 0
KBY1 241936Z 09003KT 23/12 A2996 RMK A01 T02320118  RH  049%=      5-min Rain = 0
KBY1 241937Z 15005KT 23/12 A2996 RMK A01 T02320123  RH  050%=      5-min Rain = 0
KBY1 241938Z 15003KT 23/13 A2996 RMK A01 T02340127  RH  051%=      5-min Rain = 0
KBY1 241939Z 08002KT 24/13 A2996 RMK A01 T02360128  RH  051%=      5-min Rain = 0
KBY1 241940Z 02000KT 24/13 A2996 RMK A01 T02370129  RH  051%=      5-min Rain = 0
KBY1 241941Z 05001KT 24/12 A2996 RMK A01 T02380123  RH  049%=      5-min Rain = 0
KBY1 241942Z 01001KT 24/12 A2996 RMK A01 T02380124  RH  049%=      5-min Rain = 0
KBY1 241943Z 23004KT 24/12 A2996 RMK A01 T02380120  RH  048%=      5-min Rain = 0
KBY1 241944Z 21004KT 24/12 A2996 RMK A01 T02390124  RH  048%=      5-min Rain = 0
KBY1 241945Z 15003KT 24/12 A2996 RMK A01 T02400117  RH  046%=      5-min Rain = 0
KBY1 241946Z 14003KT 24/11 A2995 RMK A01 T02390111  RH  044%=      5-min Rain = 0
KBY1 241947Z 12004KT 24/12 A2995 RMK A01 T02380116  RH  046%=      5-min Rain = 0
KBY1 241948Z 16005KT 24/12 A2995 RMK A01 T02390116  RH  046%=      5-min Rain = 0
KBY1 241949Z 17004KT 24/12 A2995 RMK A01 T02390118  RH  047%=      5-min Rain = 0
KBY1 241950Z 17002KT 24/12 A2995 RMK A01 T02400115  RH  046%=      5-min Rain = 0
KBY1 241951Z 17005KT 24/12 A2995 RMK A01 T02410119  RH  046%=      5-min Rain = 0
KBY1 241952Z 18003KT 24/13 A2995 RMK A01 T02420125  RH  048%=      5-min Rain = 0
KBY1 241953Z 19005KT 24/12 A2995 RMK A01 T02420118  RH  046%=      5-min Rain = 0
KBY1 241954Z 19005KT 24/11 A2995 RMK A01 T02410112  RH  044%=      5-min Rain = 0
KBY1 241955Z 18007KT 24/12 A2995 RMK A01 T02390117  RH  046%=      5-min Rain = 0
KBY1 241956Z 16007KT 24/12 A2995 RMK A01 T02390116  RH  046%=      5-min Rain = 0
KBY1 241957Z 15004KT 24/12 A2995 RMK A01 T02400121  RH  047%=      5-min Rain = 0
KBY1 241958Z 14003KT 24/12 A2995 RMK A01 T02430120  RH  046%=      5-min Rain = 0
KBY1 241959Z 12003KT 24/11 A2995 RMK A01 T02440109  RH  043%=      5-min Rain = 0
KBY1 242000Z 12003KT 24/11 A2995 RMK A01 T02430111  RH  044%=      5-min Rain = 0
KBY1 242001Z 12004KT 24/12 A2995 RMK A01 T02420116  RH  045%=      5-min Rain = 0
KBY1 242002Z 16004KT 24/12 A2995 RMK A01 T02430116  RH  045%=      5-min Rain = 0
KBY1 242003Z 15004KT 24/11 A2995 RMK A01 T02440114  RH  044%=      5-min Rain = 0
KBY1 242004Z 13001KT 25/11 A2995 RMK A01 T02460114  RH  044%=      5-min Rain = 0
KBY1 242005Z 13002KT 25/12 A2995 RMK A01 T02470120  RH  045%=      5-min Rain = 0
KBY1 242006Z 14002KT 25/12 A2995 RMK A01 T02500124  RH  045%=      5-min Rain = 0
KBY1 242007Z 13003KT 25/12 A2995 RMK A01 T02510124  RH  045%=      5-min Rain = 0
KBY1 242008Z 11006KT 25/13 A2995 RMK A01 T02520130  RH  047%=      5-min Rain = 0
KBY1 242009Z 11008KT 25/13 A2995 RMK A01 T02510134  RH  048%=      5-min Rain = 0
KBY1 242010Z 10008KT 25/13 A2995 RMK A01 T02500132  RH  048%=      5-min Rain = 0
KBY1 242011Z 09008KT 25/13 A2995 RMK A01 T02480130  RH  048%=      5-min Rain = 0
KBY1 242012Z 11008KT 25/14 A2995 RMK A01 T02460136  RH  050%=      5-min Rain = 0
KBY1 242013Z 10008KT 25/13 A2995 RMK A01 T02480132  RH  048%=      5-min Rain = 0
KBY1 242014Z 10007KT 25/13 A2995 RMK A01 T02480129  RH  047%=      5-min Rain = 0
KBY1 242015Z 08006KT 25/13 A2995 RMK A01 T02470128  RH  047%=      5-min Rain = 0
KBY1 242016Z 08007KT 25/13 A2995 RMK A01 T02450132  RH  049%=      5-min Rain = 0
KBY1 242017Z 08008KT 25/14 A2995 RMK A01 T02460135  RH  050%=      5-min Rain = 0
KBY1 242018Z 08006KT 25/13 A2995 RMK A01 T02470133  RH  049%=      5-min Rain = 0
KBY1 242019Z 10007KT 25/14 A2995 RMK A01 T02480135  RH  049%=      5-min Rain = 0
KBY1 242020Z 13006KT 25/14 A2995 RMK A01 T02500135  RH  049%=      5-min Rain = 0
KBY1 242021Z 10006KT 25/13 A2995 RMK A01 T02510133  RH  048%=      5-min Rain = 0
KBY1 242022Z 10003KT 25/13 A2995 RMK A01 T02500129  RH  047%=      5-min Rain = 0
KBY1 242023Z 11003KT 25/13 A2994 RMK A01 T02500130  RH  047%=      5-min Rain = 0
KBY1 242024Z 15001KT 25/13 A2994 RMK A01 T02490127  RH  046%=      5-min Rain = 0
KBY1 242025Z 11001KT 25/13 A2994 RMK A01 T02500129  RH  047%=      5-min Rain = 0
KBY1 242026Z 07005KT 25/14 A2994 RMK A01 T02520137  RH  049%=      5-min Rain = 0
KBY1 242027Z 05005KT 25/13 A2994 RMK A01 T02530134  RH  048%=      5-min Rain = 0
KBY1 242028Z 08006KT 25/14 A2994 RMK A01 T02530139  RH  049%=      5-min Rain = 0
KBY1 242029Z 06006KT 25/14 A2994 RMK A01 T02530138  RH  049%=      5-min Rain = 0
KBY1 242030Z 08008KT 25/15 A2993 RMK A01 T02540147  RH  051%=      5-min Rain = 0
KBY1 242031Z 10005KT 26/14 A2993 RMK A01 T02570143  RH  049%=      5-min Rain = 0
KBY1 242032Z 09007KT 26/14 A2993 RMK A01 T02560140  RH  049%=      5-min Rain = 0
KBY1 242033Z 10007KT 26/14 A2993 RMK A01 T02560141  RH  049%=      5-min Rain = 0
KBY1 242034Z 10006KT 26/14 A2993 RMK A01 T02550139  RH  048%=      5-min Rain = 0
KBY1 242035Z 13005KT 26/14 A2993 RMK A01 T02550139  RH  048%=      5-min Rain = 0
KBY1 242036Z 12004KT 26/13 A2993 RMK A01 T02550134  RH  047%=      5-min Rain = 0
KBY1 242037Z 12003KT 25/14 A2993 RMK A01 T02540137  RH  048%=      5-min Rain = 0
KBY1 242038Z 13003KT 25/14 A2993 RMK A01 T02530135  RH  048%=      5-min Rain = 0
KBY1 242039Z 16002KT 25/13 A2992 RMK A01 T02540134  RH  047%=      5-min Rain = 0
KBY1 242040Z 13001KT 25/14 A2992 RMK A01 T02540137  RH  048%=      5-min Rain = 0
KBY1 242041Z 06005KT 26/14 A2992 RMK A01 T02550138  RH  048%=      5-min Rain = 0
KBY1 242042Z 08006KT 26/14 A2992 RMK A01 T02550143  RH  050%=      5-min Rain = 0
KBY1 242043Z 06005KT 26/14 A2992 RMK A01 T02560135  RH  047%=      5-min Rain = 0
KBY1 242044Z 05004KT 25/14 A2992 RMK A01 T02540136  RH  048%=      5-min Rain = 0
KBY1 242045Z 04003KT 25/13 A2992 RMK A01 T02520133  RH  047%=      5-min Rain = 0
KBY1 242046Z 08005KT 25/14 A2992 RMK A01 T02520141  RH  050%=      5-min Rain = 0
KBY1 242047Z 07006KT 25/15 A2992 RMK A01 T02540145  RH  051%=      5-min Rain = 0
KBY1 242048Z 04004KT 26/14 A2992 RMK A01 T02560139  RH  048%=      5-min Rain = 0
KBY1 242049Z 02003KT 26/14 A2992 RMK A01 T02560136  RH  047%=      5-min Rain = 0
KBY1 242050Z 35001KT 26/14 A2992 RMK A01 T02560135  RH  047%=      5-min Rain = 0
KBY1 242051Z 31000KT 26/13 A2991 RMK A01 T02560133  RH  047%=      5-min Rain = 0
KBY1 242052Z 30001KT 26/14 A2991 RMK A01 T02570137  RH  048%=      5-min Rain = 0
KBY1 242053Z 24001KT 26/14 A2991 RMK A01 T02580138  RH  047%=      5-min Rain = 0
KBY1 242054Z 21002KT 26/14 A2991 RMK A01 T02600144  RH  049%=      5-min Rain = 0
KBY1 242055Z 20005KT 26/15 A2991 RMK A01 T02610147  RH  050%=      5-min Rain = 0
KBY1 242056Z 23003KT 26/14 A2991 RMK A01 T02610140  RH  047%=      5-min Rain = 0
KBY1 242057Z 11000KT 26/13 A2991 RMK A01 T02590126  RH  044%=      5-min Rain = 0
KBY1 242058Z 10001KT 26/13 A2991 RMK A01 T02580127  RH  044%=      5-min Rain = 0
KBY1 242059Z 31001KT 26/13 A2991 RMK A01 T02590132  RH  045%=      5-min Rain = 0
KBY1 242100Z 18001KT 26/13 A2991 RMK A01 T02610125  RH  043%=      5-min Rain = 0
KBY1 242101Z 07001KT 26/12 A2991 RMK A01 T02620116  RH  040%=      5-min Rain = 0
KBY1 242102Z 00001KT 26/12 A2991 RMK A01 T02620123  RH  042%=      5-min Rain = 0
KBY1 242103Z 19001KT 26/13 A2991 RMK A01 T02640129  RH  043%=      5-min Rain = 0
KBY1 242104Z 18003KT 27/13 A2991 RMK A01 T02660129  RH  043%=      5-min Rain = 0
KBY1 242105Z 17002KT 27/13 A2991 RMK A01 T02660134  RH  044%=      5-min Rain = 0
KBY1 242106Z 15002KT 27/13 A2991 RMK A01 T02680133  RH  043%=      5-min Rain = 0
KBY1 242107Z 14002KT 27/13 A2991 RMK A01 T02680128  RH  042%=      5-min Rain = 0
KBY1 242108Z 09002KT 27/13 A2991 RMK A01 T02680130  RH  043%=      5-min Rain = 0
KBY1 242109Z 14005KT 27/13 A2991 RMK A01 T02660132  RH  044%=      5-min Rain = 0
KBY1 242110Z 13005KT 27/13 A2991 RMK A01 T02670131  RH  043%=      5-min Rain = 0
KBY1 242111Z 14006KT 27/13 A2991 RMK A01 T02700131  RH  042%=      5-min Rain = 0
KBY1 242112Z 12006KT 27/13 A2991 RMK A01 T02710132  RH  042%=      5-min Rain = 0
KBY1 242113Z 11006KT 27/12 A2991 RMK A01 T02720124  RH  040%=      5-min Rain = 0
KBY1 242114Z 11007KT 27/13 A2991 RMK A01 T02710127  RH  041%=      5-min Rain = 0
KBY1 242115Z 13005KT 27/13 A299 RMK A01 T02700130  RH  042%=      5-min Rain = 0
KBY1 242116Z 13005KT 27/13 A299 RMK A01 T02720129  RH  041%=      5-min Rain = 0
KBY1 242117Z 13003KT 27/12 A299 RMK A01 T02720119  RH  039%=      5-min Rain = 0
KBY1 242118Z 15004KT 27/12 A299 RMK A01 T02720121  RH  039%=      5-min Rain = 0
KBY1 242119Z 14002KT 27/12 A299 RMK A01 T02720123  RH  040%=      5-min Rain = 0
KBY1 242120Z 16006KT 27/13 A299 RMK A01 T02720129  RH  041%=      5-min Rain = 0
KBY1 242121Z 18010KT 27/12 A299 RMK A01 T02730121  RH  039%=      5-min Rain = 0
KBY1 242122Z 18008KT 27/12 A299 RMK A01 T02730118  RH  038%=      5-min Rain = 0
KBY1 242123Z 17007KT 27/12 A299 RMK A01 T02720120  RH  039%=      5-min Rain = 0
KBY1 242124Z 17008KT 27/12 A299 RMK A01 T02720120  RH  039%=      5-min Rain = 0
KBY1 242125Z 15006KT 27/11 A299 RMK A01 T02730114  RH  037%=      5-min Rain = 0
KBY1 242126Z 16005KT 27/12 A299 RMK A01 T02730121  RH  039%=      5-min Rain = 0
KBY1 242127Z 18004KT 28/12 A299 RMK A01 T02750117  RH  037%=      5-min Rain = 0
KBY1 242128Z 13004KT 28/13 A299 RMK A01 T02760128  RH  040%=      5-min Rain = 0
KBY1 242129Z 11005KT 28/13 A299 RMK A01 T02780134  RH  041%=      5-min Rain = 0
KBY1 242130Z 11006KT 28/13 A299 RMK A01 T02780128  RH  040%=      5-min Rain = 0
KBY1 242131Z 13005KT 28/12 A299 RMK A01 T02770124  RH  039%=      5-min Rain = 0
KBY1 242132Z 13003KT 28/12 A299 RMK A01 T02750123  RH  039%=      5-min Rain = 0
KBY1 242133Z 13006KT 27/12 A299 RMK A01 T02740119  RH  038%=      5-min Rain = 0
KBY1 242134Z 14006KT 27/12 A2989 RMK A01 T02740116  RH  037%=      5-min Rain = 0
KBY1 242135Z 13005KT 27/11 A2989 RMK A01 T02740110  RH  036%=      5-min Rain = 0
KBY1 242136Z 13004KT 27/11 A2989 RMK A01 T02740112  RH  036%=      5-min Rain = 0
KBY1 242137Z 22003KT 28/12 A2989 RMK A01 T02750118  RH  038%=      5-min Rain = 0
KBY1 242138Z 26004KT 28/12 A2989 RMK A01 T02770116  RH  037%=      5-min Rain = 0
KBY1 242139Z 26002KT 28/12 A2989 RMK A01 T02780116  RH  036%=      5-min Rain = 0
KBY1 242140Z 18002KT 28/11 A2988 RMK A01 T02800114  RH  036%=      5-min Rain = 0
KBY1 242141Z 19005KT 28/12 A2988 RMK A01 T02800122  RH  038%=      5-min Rain = 0
KBY1 242142Z 18008KT 28/12 A2988 RMK A01 T02810120  RH  037%=      5-min Rain = 0
KBY1 242143Z 18007KT 28/11 A2988 RMK A01 T02800113  RH  035%=      5-min Rain = 0
KBY1 242144Z 19005KT 28/10 A2988 RMK A01 T02790103  RH  034%=      5-min Rain = 0
KBY1 242145Z 18005KT 28/11 A2988 RMK A01 T02770107  RH  035%=      5-min Rain = 0
KBY1 242146Z 17004KT 28/10 A2988 RMK A01 T02760098  RH  033%=      5-min Rain = 0
KBY1 242147Z 21003KT 28/10 A2988 RMK A01 T02750101  RH  034%=      5-min Rain = 0
KBY1 242148Z 25001KT 28/10 A2988 RMK A01 T02750102  RH  034%=      5-min Rain = 0
KBY1 242149Z 21000KT 28/09 A2988 RMK A01 T02760093  RH  032%=      5-min Rain = 0
KBY1 242150Z 01000KT 28/09 A2988 RMK A01 T02780091  RH  031%=      5-min Rain = 0
KBY1 242151Z 14002KT 28/10 A2988 RMK A01 T02790098  RH  032%=      5-min Rain = 0
KBY1 242152Z 13002KT 28/09 A2988 RMK A01 T02800093  RH  031%=      5-min Rain = 0
KBY1 242153Z 08001KT 28/09 A2988 RMK A01 T02800089  RH  030%=      5-min Rain = 0
KBY1 242154Z 10000KT 28/10 A2988 RMK A01 T02790096  RH  032%=      5-min Rain = 0
KBY1 242155Z 13001KT 28/09 A2988 RMK A01 T02790093  RH  031%=      5-min Rain = 0
KBY1 242156Z 04002KT 28/10 A2988 RMK A01 T02780096  RH  032%=      5-min Rain = 0
KBY1 242157Z 13001KT 28/10 A2988 RMK A01 T02780099  RH  033%=      5-min Rain = 0
KBY1 242158Z 14002KT 28/09 A2988 RMK A01 T02780094  RH  032%=      5-min Rain = 0
KBY1 242159Z 15001KT 28/09 A2988 RMK A01 T02780094  RH  031%=      5-min Rain = 0
KBY1 242200Z 17002KT 28/10 A2988 RMK A01 T02790102  RH  033%=      5-min Rain = 0
KBY1 242201Z 20006KT 28/10 A2988 RMK A01 T02800104  RH  033%=      5-min Rain = 0
KBY1 242202Z 20007KT 28/10 A2988 RMK A01 T02800103  RH  033%=      5-min Rain = 0
KBY1 242203Z 19004KT 28/09 A2988 RMK A01 T02800090  RH  030%=      5-min Rain = 0
KBY1 242204Z 18002KT 28/10 A2988 RMK A01 T02790102  RH  033%=      5-min Rain = 0
KBY1 242205Z 19002KT 28/10 A2988 RMK A01 T02810099  RH  032%=      5-min Rain = 0
KBY1 242206Z 17003KT 28/09 A2988 RMK A01 T02830085  RH  029%=      5-min Rain = 0
KBY1 242207Z 18004KT 28/09 A2988 RMK A01 T02830092  RH  030%=      5-min Rain = 0
KBY1 242208Z 19005KT 28/10 A2988 RMK A01 T02820102  RH  033%=      5-min Rain = 0
KBY1 242209Z 16003KT 28/09 A2988 RMK A01 T02820093  RH  031%=      5-min Rain = 0
KBY1 242210Z 14003KT 28/09 A2988 RMK A01 T02820092  RH  030%=      5-min Rain = 0
KBY1 242211Z 16003KT 28/09 A2988 RMK A01 T02820091  RH  030%=      5-min Rain = 0
KBY1 242212Z 11001KT 28/09 A2988 RMK A01 T02820088  RH  030%=      5-min Rain = 0
KBY1 242213Z 17001KT 28/09 A2988 RMK A01 T02810092  RH  031%=      5-min Rain = 0
KBY1 242214Z 20002KT 28/10 A2988 RMK A01 T02830103  RH  033%=      5-min Rain = 0
KBY1 242215Z 32001KT 28/09 A2988 RMK A01 T02840088  RH  029%=      5-min Rain = 0
KBY1 242216Z 04002KT 28/09 A2988 RMK A01 T02840094  RH  030%=      5-min Rain = 0
KBY1 242217Z 03003KT 29/09 A2988 RMK A01 T02850092  RH  030%=      5-min Rain = 0
KBY1 242218Z 00002KT 28/09 A2988 RMK A01 T02830094  RH  031%=      5-min Rain = 0
KBY1 242219Z 35002KT 28/09 A2988 RMK A01 T02820093  RH  031%=      5-min Rain = 0
KBY1 242220Z 01001KT 28/09 A2988 RMK A01 T02820092  RH  030%=      5-min Rain = 0
KBY1 242221Z 14002KT 28/09 A2987 RMK A01 T02830094  RH  031%=      5-min Rain = 0
KBY1 242222Z 15003KT 29/10 A2987 RMK A01 T02850095  RH  031%=      5-min Rain = 0
KBY1 242223Z 15004KT 29/08 A2987 RMK A01 T02860079  RH  027%=      5-min Rain = 0
KBY1 242224Z 16003KT 29/08 A2987 RMK A01 T02860079  RH  027%=      5-min Rain = 0
KBY1 242225Z 06003KT 29/10 A2987 RMK A01 T02870096  RH  030%=      5-min Rain = 0
KBY1 242226Z 05005KT 29/09 A2987 RMK A01 T02870090  RH  029%=      5-min Rain = 0
KBY1 242227Z 07005KT 29/09 A2987 RMK A01 T02860092  RH  030%=      5-min Rain = 0
KBY1 242228Z 06004KT 29/09 A2987 RMK A01 T02850085  RH  028%=      5-min Rain = 0
KBY1 242229Z 09005KT 28/10 A2987 RMK A01 T02840097  RH  031%=      5-min Rain = 0
KBY1 242230Z 10006KT 28/09 A2987 RMK A01 T02840087  RH  029%=      5-min Rain = 0
KBY1 242231Z 10006KT 29/09 A2987 RMK A01 T02850088  RH  029%=      5-min Rain = 0
KBY1 242232Z 11005KT 29/09 A2987 RMK A01 T02850087  RH  029%=      5-min Rain = 0
KBY1 242233Z 16008KT 29/09 A2987 RMK A01 T02860090  RH  029%=      5-min Rain = 0
KBY1 242234Z 18007KT 29/07 A2987 RMK A01 T02860072  RH  026%=      5-min Rain = 0
KBY1 242235Z 15007KT 29/08 A2987 RMK A01 T02850081  RH  028%=      5-min Rain = 0
KBY1 242236Z 13004KT 29/08 A2987 RMK A01 T02850079  RH  027%=      5-min Rain = 0
KBY1 242237Z 12004KT 29/07 A2987 RMK A01 T02860073  RH  026%=      5-min Rain = 0
KBY1 242238Z 12006KT 29/09 A2987 RMK A01 T02870086  RH  028%=      5-min Rain = 0
KBY1 242239Z 13006KT 29/08 A2986 RMK A01 T02880084  RH  028%=      5-min Rain = 0
KBY1 242240Z 13004KT 29/08 A2986 RMK A01 T02880084  RH  028%=      5-min Rain = 0
KBY1 242241Z 11004KT 29/08 A2986 RMK A01 T02890078  RH  027%=      5-min Rain = 0
KBY1 242242Z 13007KT 29/09 A2986 RMK A01 T02890093  RH  029%=      5-min Rain = 0
KBY1 242243Z 16007KT 29/10 A2986 RMK A01 T02900100  RH  031%=      5-min Rain = 0
KBY1 242244Z 17005KT 29/08 A2986 RMK A01 T02910083  RH  027%=      5-min Rain = 0
KBY1 242245Z 17006KT 29/08 A2986 RMK A01 T02900083  RH  027%=      5-min Rain = 0
KBY1 242246Z 17006KT 29/08 A2986 RMK A01 T02890079  RH  027%=      5-min Rain = 0
KBY1 242247Z 17007KT 29/08 A2986 RMK A01 T02880079  RH  027%=      5-min Rain = 0
KBY1 242248Z 17006KT 29/08 A2986 RMK A01 T02880080  RH  027%=      5-min Rain = 0
KBY1 242249Z 18007KT 29/08 A2986 RMK A01 T02880079  RH  027%=      5-min Rain = 0
KBY1 242250Z 18006KT 29/08 A2986 RMK A01 T02870083  RH  028%=      5-min Rain = 0
KBY1 242251Z 18007KT 29/09 A2985 RMK A01 T02880086  RH  028%=      5-min Rain = 0
KBY1 242252Z 18006KT 29/07 A2985 RMK A01 T02870069  RH  025%=      5-min Rain = 0
KBY1 242253Z 15004KT 29/07 A2985 RMK A01 T02870069  RH  025%=      5-min Rain = 0
KBY1 242254Z 14003KT 29/06 A2985 RMK A01 T02870063  RH  024%=      5-min Rain = 0
KBY1 242255Z 16003KT 29/06 A2985 RMK A01 T02870063  RH  024%=      5-min Rain = 0
KBY1 242256Z 18003KT 29/08 A2985 RMK A01 T02880078  RH  027%=      5-min Rain = 0
KBY1 242257Z 19005KT 29/09 A2985 RMK A01 T02890087  RH  028%=      5-min Rain = 0
KBY1 242258Z 18003KT 29/07 A2985 RMK A01 T02890070  RH  025%=      5-min Rain = 0
KBY1 242259Z 18003KT 29/07 A2985 RMK A01 T02900071  RH  025%=      5-min Rain = 0
KBY1 242300Z 19004KT 29/08 A2985 RMK A01 T02900078  RH  026%=      5-min Rain = 0
KBY1 242301Z 23005KT 29/08 A2985 RMK A01 T02900077  RH  026%=      5-min Rain = 0
KBY1 242302Z 24005KT 29/07 A2985 RMK A01 T02900074  RH  026%=      5-min Rain = 0
KBY1 242303Z 23004KT 29/08 A2985 RMK A01 T02910082  RH  027%=      5-min Rain = 0
KBY1 242304Z 22006KT 29/09 A2985 RMK A01 T02900087  RH  028%=      5-min Rain = 0
KBY1 242305Z 21005KT 29/07 A2985 RMK A01 T02900074  RH  026%=      5-min Rain = 0
KBY1 242306Z 22002KT 29/08 A2985 RMK A01 T02900075  RH  026%=      5-min Rain = 0
KBY1 242307Z 19003KT 29/09 A2985 RMK A01 T02910087  RH  028%=      5-min Rain = 0
KBY1 242308Z 18005KT 29/09 A2985 RMK A01 T02910087  RH  028%=      5-min Rain = 0
KBY1 242309Z 19003KT 29/10 A2985 RMK A01 T02910095  RH  029%=      5-min Rain = 0
KBY1 242310Z 18002KT 29/08 A2985 RMK A01 T02910079  RH  027%=      5-min Rain = 0
KBY1 242311Z 11003KT 29/08 A2985 RMK A01 T02910081  RH  027%=      5-min Rain = 0
KBY1 242312Z 10003KT 29/08 A2985 RMK A01 T02910076  RH  026%=      5-min Rain = 0
KBY1 242313Z 07003KT 29/08 A2985 RMK A01 T02910084  RH  027%=      5-min Rain = 0
KBY1 242314Z 10005KT 29/08 A2985 RMK A01 T02900083  RH  027%=      5-min Rain = 0
KBY1 242315Z 11005KT 29/08 A2985 RMK A01 T02900077  RH  026%=      5-min Rain = 0
KBY1 242316Z 11005KT 29/09 A2985 RMK A01 T02890092  RH  029%=      5-min Rain = 0
KBY1 242317Z 14010KT 29/09 A2985 RMK A01 T02890090  RH  029%=      5-min Rain = 0
KBY1 242318Z 12008KT 29/08 A2985 RMK A01 T02890080  RH  027%=      5-min Rain = 0
KBY1 242319Z 12008KT 29/08 A2985 RMK A01 T02880082  RH  028%=      5-min Rain = 0
KBY1 242320Z 15006KT 29/09 A2985 RMK A01 T02870088  RH  029%=      5-min Rain = 0
KBY1 242321Z 16005KT 29/10 A2985 RMK A01 T02870096  RH  030%=      5-min Rain = 0
KBY1 242322Z 13006KT 29/10 A2985 RMK A01 T02880099  RH  031%=      5-min Rain = 0
KBY1 242323Z 14008KT 29/09 A2985 RMK A01 T02890093  RH  029%=      5-min Rain = 0
KBY1 242324Z 13007KT 29/09 A2984 RMK A01 T02890090  RH  029%=      5-min Rain = 0
KBY1 242325Z 13005KT 29/09 A2984 RMK A01 T02890092  RH  029%=      5-min Rain = 0
KBY1 242326Z 13008KT 29/10 A2984 RMK A01 T02890100  RH  031%=      5-min Rain = 0
KBY1 242327Z 15012KT 29/09 A2984 RMK A01 T02900092  RH  029%=      5-min Rain = 0
KBY1 242328Z 17007KT 29/09 A2984 RMK A01 T02900089  RH  029%=      5-min Rain = 0
KBY1 242329Z 16007KT 29/09 A2984 RMK A01 T02880088  RH  029%=      5-min Rain = 0
KBY1 242330Z 17009KT 29/09 A2984 RMK A01 T02890091  RH  029%=      5-min Rain = 0
KBY1 242331Z 15006KT 29/09 A2984 RMK A01 T02880093  RH  029%=      5-min Rain = 0
KBY1 242332Z 16005KT 29/09 A2984 RMK A01 T02890090  RH  029%=      5-min Rain = 0
KBY1 242333Z 17006KT 29/09 A2984 RMK A01 T02890093  RH  029%=      5-min Rain = 0
KBY1 242334Z 15008KT 29/10 A2984 RMK A01 T02890102  RH  031%=      5-min Rain = 0
KBY1 242335Z 11010KT 29/14 A2984 RMK A01 T02890135  RH  039%=      5-min Rain = 0
KBY1 242336Z 10011KT 28/17 A2984 RMK A01 T02840173  RH  051%=      5-min Rain = 0
KBY1 242337Z 10015KT 28/18 A2984 RMK A01 T02770184  RH  057%=      5-min Rain = 0
KBY1 242338Z 10013KT 27/18 A2984 RMK A01 T02710183  RH  058%=      5-min Rain = 0
KBY1 242339Z 11013KT 27/18 A2984 RMK A01 T02680184  RH  060%=      5-min Rain = 0
KBY1 242340Z 11013KT 27/18 A2984 RMK A01 T02670184  RH  060%=      5-min Rain = 0
KBY1 242341Z 11016KT 27/19 A2984 RMK A01 T02650185  RH  061%=      5-min Rain = 0
KBY1 242342Z 11013KT 26/18 A2984 RMK A01 T02630182  RH  061%=      5-min Rain = 0
KBY1 242343Z 12014KT 26/18 A2984 RMK A01 T02630183  RH  062%=      5-min Rain = 0
KBY1 242344Z 11014KT 26/18 A2984 RMK A01 T02630182  RH  061%=      5-min Rain = 0
KBY1 242345Z 12013KT 26/18 A2984 RMK A01 T02620183  RH  062%=      5-min Rain = 0
KBY1 242346Z 12013KT 26/18 A2984 RMK A01 T02620183  RH  062%=      5-min Rain = 0
KBY1 242347Z 11010G16KT 26/19 A2984 RMK A01 T02620186  RH  063%=      5-min Rain = 0
KBY1 242348Z 12013KT 26/19 A2984 RMK A01 T02620185  RH  062%=      5-min Rain = 0
KBY1 242349Z 10012KT 26/18 A2984 RMK A01 T02630184  RH  062%=      5-min Rain = 0
KBY1 242350Z 11012G18KT 26/18 A2984 RMK A01 T02620183  RH  062%=      5-min Rain = 0
KBY1 242351Z 10016G21KT 26/18 A2984 RMK A01 T02620183  RH  062%=      5-min Rain = 0
KBY1 242352Z 10016KT 26/18 A2984 RMK A01 T02610181  RH  061%=      5-min Rain = 0
KBY1 242353Z 10014KT 26/18 A2984 RMK A01 T02590181  RH  062%=      5-min Rain = 0
KBY1 242354Z 11014KT 26/18 A2984 RMK A01 T02570183  RH  063%=      5-min Rain = 0
KBY1 242355Z 11012KT 26/18 A2984 RMK A01 T02550182  RH  064%=      5-min Rain = 0
KBY1 242356Z 11014KT 25/18 A2984 RMK A01 T02530180  RH  064%=      5-min Rain = 0
KBY1 242357Z 12012G17KT 25/18 A2984 RMK A01 T02510181  RH  065%=      5-min Rain = 0
KBY1 242358Z 11011KT 25/18 A2984 RMK A01 T02500180  RH  065%=      5-min Rain = 0
KBY1 242359Z 11013KT 25/18 A2984 RMK A01 T02500180  RH  065%=      5-min Rain = 0
KBY1 250000Z 11012KT 25/18 A2984 RMK A01 T02500180  RH  065%=      5-min Rain = 0
KBY1 250001Z 11014KT 25/18 A2984 RMK A01 T02520180  RH  065%=      5-min Rain = 0
KBY1 250002Z 11013KT 25/18 A2984 RMK A01 T02530180  RH  064%=      5-min Rain = 0
KBY1 250003Z 10014G19KT 25/18 A2984 RMK A01 T02530181  RH  064%=      5-min Rain = 0
KBY1 250004Z 11015KT 25/18 A2984 RMK A01 T02530180  RH  064%=      5-min Rain = 0
KBY1 250005Z 11014KT 25/18 A2984 RMK A01 T02530179  RH  064%=      5-min Rain = 0
KBY1 250006Z 11012KT 25/18 A2984 RMK A01 T02530181  RH  064%=      5-min Rain = 0
KBY1 250007Z 10013KT 25/18 A2984 RMK A01 T02530181  RH  064%=      5-min Rain = 0
KBY1 250008Z 10013KT 25/18 A2984 RMK A01 T02530181  RH  064%=      5-min Rain = 0
KBY1 250009Z 10014KT 25/18 A2984 RMK A01 T02520181  RH  065%=      5-min Rain = 0
KBY1 250010Z 10014KT 25/18 A2984 RMK A01 T02500181  RH  066%=      5-min Rain = 0
KBY1 250011Z 11013KT 25/18 A2984 RMK A01 T02490180  RH  066%=      5-min Rain = 0
KBY1 250012Z 10012KT 25/18 A2984 RMK A01 T02470181  RH  066%=      5-min Rain = 0
KBY1 250013Z 10011KT 25/18 A2984 RMK A01 T02460180  RH  067%=      5-min Rain = 0
KBY1 250014Z 10013KT 25/18 A2984 RMK A01 T02460180  RH  067%=      5-min Rain = 0
KBY1 250015Z 10014KT 25/18 A2984 RMK A01 T02460179  RH  066%=      5-min Rain = 0
KBY1 250016Z 10012KT 25/18 A2984 RMK A01 T02460179  RH  066%=      5-min Rain = 0
KBY1 250017Z 11009KT 25/18 A2984 RMK A01 T02470181  RH  067%=      5-min Rain = 0
KBY1 250018Z 12010KT 25/18 A2984 RMK A01 T02470181  RH  067%=      5-min Rain = 0
KBY1 250019Z 11009KT 25/18 A2984 RMK A01 T02460180  RH  067%=      5-min Rain = 0
KBY1 250020Z 11010G15KT 25/18 A2984 RMK A01 T02450180  RH  067%=      5-min Rain = 0
KBY1 250021Z 11010KT 24/18 A2984 RMK A01 T02440178  RH  067%=      5-min Rain = 0
KBY1 250022Z 12011KT 24/18 A2984 RMK A01 T02440177  RH  066%=      5-min Rain = 0
KBY1 250023Z 12012KT 24/18 A2984 RMK A01 T02440177  RH  066%=      5-min Rain = 0
KBY1 250024Z 11009KT 25/18 A2984 RMK A01 T02450178  RH  066%=      5-min Rain = 0
KBY1 250025Z 12010KT 25/18 A2984 RMK A01 T02460178  RH  066%=      5-min Rain = 0
KBY1 250026Z 11009KT 25/18 A2984 RMK A01 T02470179  RH  066%=      5-min Rain = 0
KBY1 250027Z 10009KT 25/18 A2984 RMK A01 T02470180  RH  066%=      5-min Rain = 0
KBY1 250028Z 10009KT 25/18 A2984 RMK A01 T02470180  RH  067%=      5-min Rain = 0
KBY1 250029Z 10006KT 25/18 A2983 RMK A01 T02470182  RH  067%=      5-min Rain = 0
KBY1 250030Z 11008G14KT 25/18 A2983 RMK A01 T02470182  RH  067%=      5-min Rain = 0
KBY1 250031Z 10011KT 25/18 A2984 RMK A01 T02480178  RH  065%=      5-min Rain = 0
KBY1 250032Z 11011KT 25/18 A2984 RMK A01 T02480178  RH  065%=      5-min Rain = 0
KBY1 250033Z 10009KT 25/18 A2984 RMK A01 T02480180  RH  066%=      5-min Rain = 0
KBY1 250034Z 11008KT 25/18 A2984 RMK A01 T02490180  RH  066%=      5-min Rain = 0
KBY1 250035Z 10008KT 25/18 A2983 RMK A01 T02490182  RH  066%=      5-min Rain = 0
KBY1 250036Z 10010KT 25/18 A2983 RMK A01 T02490181  RH  066%=      5-min Rain = 0
KBY1 250037Z 10010KT 25/18 A2983 RMK A01 T02490181  RH  066%=      5-min Rain = 0
KBY1 250038Z 11010KT 25/18 A2983 RMK A01 T02500180  RH  065%=      5-min Rain = 0
KBY1 250039Z 11011KT 25/18 A2984 RMK A01 T02490179  RH  065%=      5-min Rain = 0
KBY1 250040Z 10006KT 25/18 A2983 RMK A01 T02490180  RH  066%=      5-min Rain = 0
KBY1 250041Z 11009KT 25/18 A2983 RMK A01 T02490181  RH  066%=      5-min Rain = 0
KBY1 250042Z 11009KT 25/18 A2983 RMK A01 T02490180  RH  066%=      5-min Rain = 0
KBY1 250043Z 11009KT 25/18 A2983 RMK A01 T02480180  RH  066%=      5-min Rain = 0
KBY1 250044Z 11008KT 25/18 A2983 RMK A01 T02480180  RH  066%=      5-min Rain = 0
KBY1 250045Z 11008KT 25/18 A2983 RMK A01 T02480180  RH  066%=      5-min Rain = 0
KBY1 250046Z 11009KT 25/18 A2983 RMK A01 T02480180  RH  066%=      5-min Rain = 0
KBY1 250047Z 11007KT 25/18 A2983 RMK A01 T02470180  RH  066%=      5-min Rain = 0
KBY1 250048Z 11007KT 25/18 A2983 RMK A01 T02470181  RH  066%=      5-min Rain = 0
KBY1 250049Z 11007KT 25/18 A2983 RMK A01 T02470182  RH  067%=      5-min Rain = 0
KBY1 250050Z 11007KT 25/18 A2983 RMK A01 T02470181  RH  067%=      5-min Rain = 0
KBY1 250051Z 10008KT 25/18 A2983 RMK A01 T02470180  RH  066%=      5-min Rain = 0
KBY1 250052Z 11008KT 25/18 A2983 RMK A01 T02470180  RH  066%=      5-min Rain = 0
KBY1 250053Z 10008KT 25/18 A2983 RMK A01 T02460180  RH  066%=      5-min Rain = 0
KBY1 250054Z 10007KT 25/18 A2983 RMK A01 T02460181  RH  067%=      5-min Rain = 0
KBY1 250055Z 10007KT 25/18 A2983 RMK A01 T02460180  RH  067%=      5-min Rain = 0
KBY1 250056Z 11007KT 25/18 A2983 RMK A01 T02450182  RH  068%=      5-min Rain = 0
KBY1 250057Z 11008KT 25/18 A2983 RMK A01 T02450180  RH  067%=      5-min Rain = 0
KBY1 250058Z 10007KT 25/18 A2983 RMK A01 T02450180  RH  067%=      5-min Rain = 0
KBY1 250059Z 11009KT 25/18 A2983 RMK A01 T02450180  RH  067%=      5-min Rain = 0
KBY1 250100Z 10009KT 25/18 A2983 RMK A01 T02450180  RH  067%=      5-min Rain = 0
KBY1 250101Z 11008KT 24/18 A2983 RMK A01 T02440179  RH  067%=      5-min Rain = 0
KBY1 250102Z 11008KT 24/18 A2983 RMK A01 T02440180  RH  068%=      5-min Rain = 0
KBY1 250103Z 11007KT 24/18 A2983 RMK A01 T02440180  RH  068%=      5-min Rain = 0
KBY1 250104Z 11005KT 24/18 A2983 RMK A01 T02430182  RH  069%=      5-min Rain = 0
KBY1 250105Z 11006KT 24/18 A2983 RMK A01 T02430181  RH  069%=      5-min Rain = 0
KBY1 250106Z 11006KT 24/18 A2983 RMK A01 T02430181  RH  069%=      5-min Rain = 0
KBY1 250107Z 11005KT 24/18 A2983 RMK A01 T02420182  RH  069%=      5-min Rain = 0
KBY1 250108Z 11005KT 24/18 A2983 RMK A01 T02410183  RH  070%=      5-min Rain = 0
KBY1 250109Z 11006KT 24/18 A2983 RMK A01 T02410183  RH  070%=      5-min Rain = 0
KBY1 250110Z 10007KT 24/18 A2983 RMK A01 T02400181  RH  069%=      5-min Rain = 0
KBY1 250111Z 11007KT 24/18 A2983 RMK A01 T02400182  RH  070%=      5-min Rain = 0
KBY1 250112Z 10006KT 24/18 A2983 RMK A01 T02400182  RH  070%=      5-min Rain = 0
KBY1 250113Z 10006KT 24/18 A2983 RMK A01 T02390182  RH  070%=      5-min Rain = 0
KBY1 250114Z 10006KT 24/18 A2983 RMK A01 T02390182  RH  070%=      5-min Rain = 0
KBY1 250115Z 11006KT 24/18 A2983 RMK A01 T02380182  RH  071%=      5-min Rain = 0
KBY1 250116Z 10007KT 24/18 A2983 RMK A01 T02370182  RH  071%=      5-min Rain = 0
KBY1 250117Z 11006KT 24/18 A2983 RMK A01 T02370182  RH  071%=      5-min Rain = 0
KBY1 250118Z 11006KT 24/18 A2983 RMK A01 T02370182  RH  071%=      5-min Rain = 0
KBY1 250119Z 11006KT 24/18 A2983 RMK A01 T02360183  RH  072%=      5-min Rain = 0
KBY1 250120Z 11006KT 24/18 A2983 RMK A01 T02350183  RH  073%=      5-min Rain = 0
KBY1 250121Z 11006KT 23/18 A2983 RMK A01 T02340183  RH  073%=      5-min Rain = 0
KBY1 250122Z 10005KT 23/18 A2983 RMK A01 T02340183  RH  073%=      5-min Rain = 0
KBY1 250123Z 10005KT 23/18 A2983 RMK A01 T02330183  RH  073%=      5-min Rain = 0
KBY1 250124Z 10005KT 23/18 A2983 RMK A01 T02330183  RH  074%=      5-min Rain = 0
KBY1 250125Z 10004KT 23/18 A2983 RMK A01 T02320184  RH  074%=      5-min Rain = 0
KBY1 250126Z 10004KT 23/18 A2984 RMK A01 T02310184  RH  075%=      5-min Rain = 0
KBY1 250127Z 10004KT 23/18 A2984 RMK A01 T02300184  RH  075%=      5-min Rain = 0
KBY1 250128Z 10004KT 23/18 A2984 RMK A01 T02300184  RH  075%=      5-min Rain = 0
KBY1 250129Z 10004KT 23/18 A2984 RMK A01 T02300184  RH  075%=      5-min Rain = 0
KBY1 250130Z 10003KT 23/18 A2984 RMK A01 T02290183  RH  075%=      5-min Rain = 0
KBY1 250131Z 11003KT 23/18 A2984 RMK A01 T02290183  RH  075%=      5-min Rain = 0
KBY1 250132Z 11003KT 23/18 A2984 RMK A01 T02290184  RH  076%=      5-min Rain = 0
KBY1 250133Z 10003KT 23/18 A2984 RMK A01 T02280184  RH  076%=      5-min Rain = 0
KBY1 250134Z 10003KT 23/18 A2984 RMK A01 T02280183  RH  076%=      5-min Rain = 0
KBY1 250135Z 10003KT 23/18 A2984 RMK A01 T02280183  RH  076%=      5-min Rain = 0
KBY1 250136Z 10003KT 23/18 A2984 RMK A01 T02280183  RH  075%=      5-min Rain = 0
KBY1 250137Z 11003KT 23/18 A2984 RMK A01 T02280183  RH  075%=      5-min Rain = 0
KBY1 250138Z 11003KT 23/18 A2984 RMK A01 T02280183  RH  076%=      5-min Rain = 0
KBY1 250139Z 10004KT 23/18 A2984 RMK A01 T02280183  RH  076%=      5-min Rain = 0
KBY1 250140Z 10004KT 23/18 A2985 RMK A01 T02280183  RH  076%=      5-min Rain = 0
KBY1 250141Z 10004KT 23/18 A2985 RMK A01 T02260183  RH  076%=      5-min Rain = 0
KBY1 250142Z 10004KT 23/18 A2985 RMK A01 T02260183  RH  077%=      5-min Rain = 0
KBY1 250143Z 10004KT 23/18 A2985 RMK A01 T02250183  RH  077%=      5-min Rain = 0
KBY1 250144Z 10004KT 22/18 A2985 RMK A01 T02240183  RH  078%=      5-min Rain = 0
KBY1 250145Z 10004KT 22/18 A2985 RMK A01 T02230183  RH  078%=      5-min Rain = 0
KBY1 250146Z 10004KT 22/18 A2985 RMK A01 T02220183  RH  079%=      5-min Rain = 0
KBY1 250147Z 10004KT 22/18 A2985 RMK A01 T02210183  RH  079%=      5-min Rain = 0
KBY1 250148Z 10004KT 22/18 A2985 RMK A01 T02200183  RH  079%=      5-min Rain = 0
KBY1 250149Z 10004KT 22/18 A2985 RMK A01 T02200184  RH  080%=      5-min Rain = 0
KBY1 250150Z 10004KT 22/18 A2985 RMK A01 T02200184  RH  080%=      5-min Rain = 0
KBY1 250151Z 10004KT 22/18 A2985 RMK A01 T02190183  RH  080%=      5-min Rain = 0
KBY1 250152Z 10004KT 22/18 A2985 RMK A01 T02180183  RH  081%=      5-min Rain = 0
KBY1 250153Z 10004KT 22/18 A2985 RMK A01 T02170183  RH  081%=      5-min Rain = 0
KBY1 250154Z 10004KT 22/18 A2985 RMK A01 T02160184  RH  082%=      5-min Rain = 0
KBY1 250155Z 10004KT 22/18 A2985 RMK A01 T02150183  RH  082%=      5-min Rain = 0
KBY1 250156Z 10004KT 22/18 A2985 RMK A01 T02150183  RH  082%=      5-min Rain = 0
KBY1 250157Z 10004KT 22/18 A2985 RMK A01 T02150183  RH  082%=      5-min Rain = 0
KBY1 250158Z 10005KT 21/18 A2986 RMK A01 T02140183  RH  082%=      5-min Rain = 0
KBY1 250159Z 10005KT 21/18 A2986 RMK A01 T02140183  RH  083%=      5-min Rain = 0
KBY1 250200Z 10005KT 21/18 A2986 RMK A01 T02130183  RH  083%=      5-min Rain = 0
KBY1 250201Z 10005KT 21/18 A2986 RMK A01 T02130183  RH  083%=      5-min Rain = 0
KBY1 250202Z 10005KT 21/18 A2986 RMK A01 T02120183  RH  083%=      5-min Rain = 0
KBY1 250203Z 10005KT 21/18 A2986 RMK A01 T02120184  RH  084%=      5-min Rain = 0
KBY1 250204Z 10005KT 21/18 A2986 RMK A01 T02110184  RH  084%=      5-min Rain = 0
KBY1 250205Z 10005KT 21/18 A2986 RMK A01 T02110184  RH  085%=      5-min Rain = 0
KBY1 250206Z 10005KT 21/18 A2986 RMK A01 T02110184  RH  085%=      5-min Rain = 0
KBY1 250207Z 10005KT 21/18 A2986 RMK A01 T02100184  RH  085%=      5-min Rain = 0
KBY1 250208Z 10004KT 21/19 A2986 RMK A01 T02100185  RH  085%=      5-min Rain = 0
KBY1 250209Z 10005KT 21/18 A2986 RMK A01 T02100184  RH  085%=      5-min Rain = 0
KBY1 250210Z 10005KT 21/19 A2986 RMK A01 T02100185  RH  085%=      5-min Rain = 0
KBY1 250211Z 10005KT 21/19 A2986 RMK A01 T02100185  RH  085%=      5-min Rain = 0
KBY1 250212Z 10005KT 21/18 A2986 RMK A01 T02100184  RH  085%=      5-min Rain = 0
KBY1 250213Z 10005KT 21/18 A2986 RMK A01 T02100184  RH  085%=      5-min Rain = 0
KBY1 250214Z 10005KT 21/18 A2986 RMK A01 T02090184  RH  086%=      5-min Rain = 0
KBY1 250215Z 10005KT 21/18 A2986 RMK A01 T02090184  RH  086%=      5-min Rain = 0
KBY1 250216Z 10005KT 21/18 A2986 RMK A01 T02080184  RH  086%=      5-min Rain = 0
KBY1 250217Z 10005KT 21/19 A2986 RMK A01 T02080185  RH  087%=      5-min Rain = 0
KBY1 250218Z 10004KT 21/19 A2986 RMK A01 T02080185  RH  087%=      5-min Rain = 0
KBY1 250219Z 10004KT 21/19 A2987 RMK A01 T02070185  RH  087%=      5-min Rain = 0
KBY1 250220Z 10004KT 21/19 A2987 RMK A01 T02070185  RH  087%=      5-min Rain = 0
KBY1 250221Z 10004KT 21/19 A2987 RMK A01 T02070186  RH  087%=      5-min Rain = 0
KBY1 250222Z 11004KT 21/19 A2987 RMK A01 T02070185  RH  087%=      5-min Rain = 0
KBY1 250223Z 11004KT 21/19 A2987 RMK A01 T02080185  RH  087%=      5-min Rain = 0
KBY1 250224Z 11005KT 21/19 A2987 RMK A01 T02080185  RH  087%=      5-min Rain = 0
KBY1 250225Z 11005KT 21/19 A2987 RMK A01 T02080185  RH  086%=      5-min Rain = 0
KBY1 250226Z 11005KT 21/18 A2987 RMK A01 T02080184  RH  086%=      5-min Rain = 0
KBY1 250227Z 10005KT 21/19 A2987 RMK A01 T02080185  RH  087%=      5-min Rain = 0
KBY1 250228Z 11005KT 21/19 A2987 RMK A01 T02080185  RH  087%=      5-min Rain = 0
KBY1 250229Z 12005KT 21/19 A2987 RMK A01 T02070185  RH  087%=      5-min Rain = 0
KBY1 250230Z 13004KT 21/18 A2988 RMK A01 T02060184  RH  087%=      5-min Rain = 0
KBY1 250231Z 13004KT 21/18 A2988 RMK A01 T02050184  RH  087%=      5-min Rain = 0
KBY1 250232Z 13004KT 21/18 A2988 RMK A01 T02050184  RH  088%=      5-min Rain = 0
KBY1 250233Z 13004KT 20/18 A2988 RMK A01 T02040184  RH  088%=      5-min Rain = 0
KBY1 250234Z 13005KT 21/18 A2988 RMK A01 T02050184  RH  088%=      5-min Rain = 0
KBY1 250235Z 13004KT 21/18 A2988 RMK A01 T02050184  RH  088%=      5-min Rain = 0
KBY1 250236Z 14004KT 20/18 A2988 RMK A01 T02040183  RH  088%=      5-min Rain = 0
KBY1 250237Z 15009KT 20/19 A2988 RMK A01 T02040185  RH  089%=      5-min Rain = 0
KBY1 250238Z 15010KT 21/19 A2988 RMK A01 T02080188  RH  088%=      5-min Rain = 0
KBY1 250239Z 15010KT 21/19 A2988 RMK A01 T02130189  RH  086%=      5-min Rain = 0
KBY1 250240Z 15010G15KT 22/19 A2988 RMK A01 T02150189  RH  085%=      5-min Rain = 0
KBY1 250241Z 15010KT 22/19 A2988 RMK A01 T02160189  RH  085%=      5-min Rain = 0
KBY1 250242Z 14009KT 22/19 A2988 RMK A01 T02160189  RH  084%=      5-min Rain = 0
KBY1 250243Z 14010KT 22/19 A2988 RMK A01 T02170189  RH  084%=      5-min Rain = 0
KBY1 250244Z 15011KT 22/19 A2988 RMK A01 T02170189  RH  084%=      5-min Rain = 0
KBY1 250245Z 15009KT 22/19 A2988 RMK A01 T02170188  RH  084%=      5-min Rain = 0
KBY1 250246Z 15007KT 22/19 A2988 RMK A01 T02170188  RH  083%=      5-min Rain = 0
KBY1 250247Z 15008KT 22/19 A2988 RMK A01 T02170188  RH  083%=      5-min Rain = 0
KBY1 250248Z 15006KT 22/19 A2988 RMK A01 T02170187  RH  083%=      5-min Rain = 0
KBY1 250249Z 15005KT 22/19 A2988 RMK A01 T02170187  RH  083%=      5-min Rain = 0
KBY1 250250Z 16008KT 22/19 A2988 RMK A01 T02160187  RH  083%=      5-min Rain = 0
KBY1 250251Z 16008KT 22/19 A2988 RMK A01 T02160187  RH  083%=      5-min Rain = 0
KBY1 250252Z 16006KT 22/19 A2988 RMK A01 T02160187  RH  083%=      5-min Rain = 0
KBY1 250253Z 17006KT 22/19 A2988 RMK A01 T02150186  RH  084%=      5-min Rain = 0
KBY1 250254Z 15004KT 21/19 A2988 RMK A01 T02140186  RH  084%=      5-min Rain = 0
KBY1 250255Z 15005KT 21/19 A2988 RMK A01 T02140186  RH  084%=      5-min Rain = 0
KBY1 250256Z 14005KT 21/19 A2988 RMK A01 T02130185  RH  084%=      5-min Rain = 0
KBY1 250257Z 14006KT 21/19 A2988 RMK A01 T02120185  RH  084%=      5-min Rain = 0
KBY1 250258Z 15005KT 21/19 A2988 RMK A01 T02120185  RH  084%=      5-min Rain = 0
KBY1 250259Z 15003KT 21/19 A2988 RMK A01 T02120185  RH  084%=      5-min Rain = 0
KBY1 250300Z 14003KT 21/19 A2988 RMK A01 T02110185  RH  085%=      5-min Rain = 0
KBY1 250301Z 14004KT 21/18 A2988 RMK A01 T02110184  RH  085%=      5-min Rain = 0
KBY1 250302Z 12004KT 21/18 A2988 RMK A01 T02110184  RH  085%=      5-min Rain = 0
KBY1 250303Z 12004KT 21/18 A2988 RMK A01 T02100184  RH  085%=      5-min Rain = 0
KBY1 250304Z 13005KT 21/18 A2988 RMK A01 T02090184  RH  086%=      5-min Rain = 0
KBY1 250305Z 12004KT 21/18 A2988 RMK A01 T02080184  RH  086%=      5-min Rain = 0
KBY1 250306Z 13003KT 21/18 A2988 RMK A01 T02080184  RH  086%=      5-min Rain = 0
KBY1 250307Z 11003KT 21/18 A2988 RMK A01 T02070184  RH  086%=      5-min Rain = 0
KBY1 250308Z 11004KT 21/18 A2988 RMK A01 T02080184  RH  086%=      5-min Rain = 0
KBY1 250309Z 10003KT 21/18 A2988 RMK A01 T02080183  RH  086%=      5-min Rain = 0
KBY1 250310Z 10005KT 21/18 A2988 RMK A01 T02070183  RH  086%=      5-min Rain = 0
KBY1 250311Z 10005KT 21/18 A2988 RMK A01 T02060182  RH  086%=      5-min Rain = 0
KBY1 250312Z 11005KT 21/18 A2988 RMK A01 T02050182  RH  086%=      5-min Rain = 0
KBY1 250313Z 10005KT 20/18 A2987 RMK A01 T02040182  RH  087%=      5-min Rain = 0
KBY1 250314Z 10005KT 20/18 A2987 RMK A01 T02040182  RH  087%=      5-min Rain = 0
KBY1 250315Z 09005KT 20/18 A2987 RMK A01 T02030180  RH  087%=      5-min Rain = 0
KBY1 250316Z 09005KT 20/18 A2988 RMK A01 T02010180  RH  087%=      5-min Rain = 0
KBY1 250317Z 10005KT 20/18 A2988 RMK A01 T02000180  RH  088%=      5-min Rain = 0
KBY1 250318Z 09005KT 20/18 A2988 RMK A01 T01990179  RH  088%=      5-min Rain = 0
KBY1 250319Z 09006KT 20/18 A2988 RMK A01 T01980179  RH  089%=      5-min Rain = 0
KBY1 250320Z 09005KT 20/18 A2988 RMK A01 T01970179  RH  089%=      5-min Rain = 0
KBY1 250321Z 09006KT 20/18 A2988 RMK A01 T01970179  RH  089%=      5-min Rain = 0
KBY1 250322Z 10007KT 20/18 A2988 RMK A01 T01970180  RH  090%=      5-min Rain = 0
KBY1 250323Z 10008KT 20/18 A2988 RMK A01 T01970180  RH  090%=      5-min Rain = 0
KBY1 250324Z 10008KT 20/18 A2988 RMK A01 T01960180  RH  090%=      5-min Rain = 0
KBY1 250325Z 10008KT 20/18 A2988 RMK A01 T01960180  RH  090%=      5-min Rain = 0
KBY1 250326Z 10008KT 20/18 A2988 RMK A01 T01960179  RH  090%=      5-min Rain = 0
KBY1 250327Z 10006KT 20/18 A2988 RMK A01 T01960179  RH  090%=      5-min Rain = 0
KBY1 250328Z 10004KT 20/18 A2988 RMK A01 T01960179  RH  090%=      5-min Rain = 0
KBY1 250329Z 11005KT 20/18 A2988 RMK A01 T01960179  RH  090%=      5-min Rain = 0
KBY1 250330Z 11006KT 20/18 A2989 RMK A01 T01960178  RH  089%=      5-min Rain = 0
KBY1 250331Z 10005KT 20/18 A2988 RMK A01 T01960178  RH  089%=      5-min Rain = 0
KBY1 250332Z 11006KT 20/18 A2989 RMK A01 T01960177  RH  089%=      5-min Rain = 0
KBY1 250333Z 11006KT 20/18 A2989 RMK A01 T01960178  RH  089%=      5-min Rain = 0
KBY1 250334Z 09006KT 20/18 A2989 RMK A01 T01950178  RH  089%=      5-min Rain = 0
KBY1 250335Z 09006KT 20/18 A2989 RMK A01 T01950178  RH  090%=      5-min Rain = 0
KBY1 250336Z 10005KT 20/18 A2989 RMK A01 T01950178  RH  090%=      5-min Rain = 0
KBY1 250337Z 10005KT 20/18 A2989 RMK A01 T01950178  RH  090%=      5-min Rain = 0
KBY1 250338Z 09005KT 20/18 A2989 RMK A01 T01950178  RH  090%=      5-min Rain = 0
KBY1 250339Z 09004KT 19/18 A2989 RMK A01 T01940178  RH  090%=      5-min Rain = 0
KBY1 250340Z 11004KT 19/18 A2989 RMK A01 T01940178  RH  090%=      5-min Rain = 0
KBY1 250341Z 11003KT 19/18 A2989 RMK A01 T01930177  RH  091%=      5-min Rain = 0
KBY1 250342Z 12004KT 19/18 A2989 RMK A01 T01930177  RH  091%=      5-min Rain = 0
KBY1 250343Z 11004KT 19/18 A2989 RMK A01 T01920176  RH  090%=      5-min Rain = 0
KBY1 250344Z 13005KT 19/18 A2989 RMK A01 T01920175  RH  090%=      5-min Rain = 0
KBY1 250345Z 10005KT 19/17 A2989 RMK A01 T01920173  RH  089%=      5-min Rain = 0
KBY1 250346Z 13008KT 19/17 A2989 RMK A01 T01920171  RH  088%=      5-min Rain = 0
KBY1 250347Z 12006KT 19/17 A299 RMK A01 T01930167  RH  085%=      5-min Rain = 0
KBY1 250348Z 12005KT 19/17 A299 RMK A01 T01940166  RH  084%=      5-min Rain = 0
KBY1 250349Z 12006KT 20/17 A299 RMK A01 T01950167  RH  084%=      5-min Rain = 0
KBY1 250350Z 16007KT 20/17 A299 RMK A01 T01950165  RH  082%=      5-min Rain = 0
KBY1 250351Z 18004KT 20/16 A299 RMK A01 T01950163  RH  082%=      5-min Rain = 0
KBY1 250352Z 14007KT 20/16 A2991 RMK A01 T01960163  RH  081%=      5-min Rain = 0
KBY1 250353Z 14008KT 20/16 A2991 RMK A01 T01960163  RH  081%=      5-min Rain = 0
KBY1 250354Z 15007KT 20/16 A2991 RMK A01 T01970159  RH  079%=      5-min Rain = 0
KBY1 250355Z 16010KT 20/16 A2991 RMK A01 T01980159  RH  078%=      5-min Rain = 0
KBY1 250356Z 16007KT 20/16 A2991 RMK A01 T01990158  RH  077%=      5-min Rain = 0
KBY1 250357Z 16006KT 20/16 A2991 RMK A01 T01990157  RH  077%=      5-min Rain = 0
KBY1 250358Z 17003KT 20/16 A2991 RMK A01 T02000157  RH  076%=      5-min Rain = 0
KBY1 250359Z 17003KT 20/16 A2991 RMK A01 T02000159  RH  077%=      5-min Rain = 0
KBY1 250400Z 18005KT 20/16 A2991 RMK A01 T01990159  RH  078%=      5-min Rain = 0
KBY1 250401Z 15005KT 20/16 A2991 RMK A01 T01980158  RH  078%=      5-min Rain = 0
KBY1 250402Z 13004KT 20/16 A2991 RMK A01 T01980157  RH  077%=      5-min Rain = 0
KBY1 250403Z 14005KT 20/16 A2991 RMK A01 T01980158  RH  078%=      5-min Rain = 0
KBY1 250404Z 15006KT 20/16 A2991 RMK A01 T01960157  RH  079%=      5-min Rain = 0
KBY1 250405Z 13005KT 19/16 A2991 RMK A01 T01930156  RH  079%=      5-min Rain = 0
KBY1 250406Z 14005KT 19/16 A2991 RMK A01 T01930155  RH  078%=      5-min Rain = 0
KBY1 250407Z 14006KT 19/16 A2991 RMK A01 T01940156  RH  079%=      5-min Rain = 0
KBY1 250408Z 14004KT 19/16 A2991 RMK A01 T01930157  RH  079%=      5-min Rain = 0
KBY1 250409Z 19004KT 19/16 A2991 RMK A01 T01920156  RH  080%=      5-min Rain = 0
KBY1 250410Z 19004KT 19/15 A2991 RMK A01 T01910154  RH  079%=      5-min Rain = 0
KBY1 250411Z 16005KT 19/15 A2991 RMK A01 T01920153  RH  078%=      5-min Rain = 0
KBY1 250412Z 17007KT 19/15 A2991 RMK A01 T01920151  RH  077%=      5-min Rain = 0
KBY1 250413Z 18006KT 19/15 A2991 RMK A01 T01930150  RH  076%=      5-min Rain = 0
KBY1 250414Z 18005KT 19/15 A2991 RMK A01 T01940150  RH  076%=      5-min Rain = 0
KBY1 250415Z 18006G11KT 20/15 A2991 RMK A01 T01950150  RH  075%=      5-min Rain = 0
KBY1 250416Z 19005KT 20/15 A2991 RMK A01 T01950150  RH  075%=      5-min Rain = 0
KBY1 250417Z 21005KT 20/15 A2991 RMK A01 T01950150  RH  076%=      5-min Rain = 0
KBY1 250418Z 21004G11KT 19/15 A2991 RMK A01 T01930150  RH  076%=      5-min Rain = 0
KBY1 250419Z 19009KT 19/15 A2991 RMK A01 T01930147  RH  075%=      5-min Rain = 0
KBY1 250420Z 18005KT 19/15 A2991 RMK A01 T01930147  RH  075%=      5-min Rain = 0
KBY1 250421Z 18006KT 19/15 A2991 RMK A01 T01940148  RH  074%=      5-min Rain = 0
KBY1 250422Z 16006KT 19/15 A2991 RMK A01 T01940147  RH  074%=      5-min Rain = 0
KBY1 250423Z 15008G15KT 19/15 A2991 RMK A01 T01940148  RH  074%=      5-min Rain = 0
KBY1 250424Z 18006G13KT 19/15 A2991 RMK A01 T01940146  RH  073%=      5-min Rain = 0
KBY1 250425Z 17006KT 20/15 A2991 RMK A01 T01960146  RH  073%=      5-min Rain = 0
KBY1 250426Z 16003KT 20/15 A2991 RMK A01 T01970147  RH  073%=      5-min Rain = 0
KBY1 250427Z 13006KT 20/15 A2991 RMK A01 T01960147  RH  073%=      5-min Rain = 0
KBY1 250428Z 14007KT 20/15 A2991 RMK A01 T01960145  RH  073%=      5-min Rain = 0
KBY1 250429Z 11004KT 20/15 A2991 RMK A01 T01960146  RH  073%=      5-min Rain = 0
KBY1 250430Z 11005KT 20/15 A2991 RMK A01 T01960147  RH  073%=      5-min Rain = 0
KBY1 250431Z 12003KT 19/15 A2991 RMK A01 T01940149  RH  075%=      5-min Rain = 0
KBY1 250432Z 17003KT 19/15 A2991 RMK A01 T01910148  RH  076%=      5-min Rain = 0
KBY1 250433Z 17004KT 19/15 A2991 RMK A01 T01910146  RH  075%=      5-min Rain = 0
KBY1 250434Z 17003KT 19/15 A2991 RMK A01 T01910145  RH  074%=      5-min Rain = 0
KBY1 250435Z 17006KT 19/14 A2991 RMK A01 T01920144  RH  074%=      5-min Rain = 0
KBY1 250436Z 15005KT 20/14 A2991 RMK A01 T01950144  RH  072%=      5-min Rain = 0
KBY1 250437Z 13005KT 20/15 A2991 RMK A01 T01960145  RH  072%=      5-min Rain = 0
KBY1 250438Z 18007KT 20/15 A2991 RMK A01 T01960146  RH  073%=      5-min Rain = 0
KBY1 250439Z 18004KT 19/15 A2992 RMK A01 T01940145  RH  073%=      5-min Rain = 0
KBY1 250440Z 17004KT 19/15 A2992 RMK A01 T01930145  RH  074%=      5-min Rain = 0
KBY1 250441Z 17002KT 19/14 A2992 RMK A01 T01920144  RH  074%=      5-min Rain = 0
KBY1 250442Z 18001KT 19/14 A2992 RMK A01 T01920144  RH  074%=      5-min Rain = 0
KBY1 250443Z 18003KT 19/14 A2992 RMK A01 T01920144  RH  073%=      5-min Rain = 0
KBY1 250444Z 16004KT 19/14 A2992 RMK A01 T01930144  RH  074%=      5-min Rain = 0
KBY1 250445Z 14001KT 19/15 A2992 RMK A01 T01920145  RH  074%=      5-min Rain = 0
KBY1 250446Z 09001KT 19/15 A2992 RMK A01 T01910145  RH  075%=      5-min Rain = 0
KBY1 250447Z 14002KT 19/14 A2992 RMK A01 T01900144  RH  075%=      5-min Rain = 0
KBY1 250448Z 16001KT 19/15 A2992 RMK A01 T01900145  RH  075%=      5-min Rain = 0
KBY1 250449Z 08002KT 19/14 A2992 RMK A01 T01900144  RH  075%=      5-min Rain = 0
KBY1 250450Z 08001KT 19/15 A2992 RMK A01 T01890145  RH  075%=      5-min Rain = 0
KBY1 250451Z 11001KT 19/14 A2992 RMK A01 T01890144  RH  075%=      5-min Rain = 0
KBY1 250452Z 20000KT 19/15 A2992 RMK A01 T01890145  RH  075%=      5-min Rain = 0
KBY1 250453Z 20001KT 19/14 A2993 RMK A01 T01880144  RH  076%=      5-min Rain = 0
KBY1 250454Z 14002KT 19/14 A2992 RMK A01 T01880144  RH  076%=      5-min Rain = 0
KBY1 250455Z 14002KT 19/14 A2992 RMK A01 T01880144  RH  076%=      5-min Rain = 0
KBY1 250456Z 21001KT 19/15 A2992 RMK A01 T01870145  RH  076%=      5-min Rain = 0
KBY1 250457Z 36000KT 19/15 A2993 RMK A01 T01870145  RH  077%=      5-min Rain = 0
KBY1 250458Z 20001KT 19/15 A2993 RMK A01 T01850145  RH  077%=      5-min Rain = 0
KBY1 250459Z 20001KT 19/14 A2992 RMK A01 T01860144  RH  077%=      5-min Rain = 0

Page generated in 0.1228 seconds.